
Distance (Route):
Temperature : -54.0°C
Humidity : 1.7%
Pressure : 94.3hPa| Receiver | Frames | First received | Last received |
|---|---|---|---|
| SP9KGR-15 | 171 | 2026-08-31 23:23:15 | 2026-09-01 00:09:29 |
| SQ9EZE-13 | 157 | 2026-08-31 23:22:22 | 2026-09-01 00:09:17 |
| GYPAP8-17 | 44 | 2026-08-31 23:20:19 | 2026-09-01 00:08:43 |
| SQ9EZE-15 | 43 | 2026-08-31 23:23:21 | 2026-09-01 00:08:15 |
| SQ9EZE-14 | 39 | 2026-08-31 23:22:29 | 2026-09-01 00:07:48 |
| HA6NAB-11 | 12 | 2026-08-31 23:41:09 | 2026-08-31 23:50:31 |
| OE3JTB-15 | 4 | 2026-08-31 23:57:41 | 2026-09-01 00:00:23 |
| OM5KV | 2 | 2026-08-31 23:23:46 | 2026-08-31 23:43:16 |
| Receiver | Date | Latitude | Longitude | Direction | Speed | Altitude | Climb | Temperature | Humidity | Pressure | Voltage | Killtimer | Uptime | BKT | XDATA |
|---|---|---|---|---|---|---|---|---|---|---|---|---|---|---|---|
| SP9KGR-15 | 2026-09-01 00:09:29 | 49.22962 | 21.04827 | 95° | 16km/h | 16969m | 4.0m/s | -54.0°C | 1.7% | 94.3hPa | 0V | 00:00:00 | 00:00:00 | 00:00:00 | |
| SQ9EZE-13 | 2026-09-01 00:09:17 | 49.22975 | 21.04733 | 100° | 18km/h | 16920m | 4.1m/s | -54.1°C | 1.7% | 95.0hPa | 0V | 00:00:00 | 00:00:00 | 00:00:00 | |
| SP9KGR-15 | 2026-09-01 00:09:13 | 49.22978 | 21.04705 | 90° | 20km/h | 16903m | 4.2m/s | -54.2°C | 1.7% | 95.2hPa | 0V | 00:00:00 | 00:00:00 | 00:00:00 | |
| SP9KGR-15 | 2026-09-01 00:08:58 | 49.23012 | 21.04553 | 94° | 26km/h | 16839m | 6.2m/s | -54.1°C | 1.7% | 96.2hPa | 0V | 00:00:00 | 00:00:00 | 00:00:00 | |
| SQ9EZE-13 | 2026-09-01 00:08:46 | 49.23043 | 21.04380 | 99° | 46km/h | 16778m | 4.4m/s | -54.4°C | 1.8% | 97.1hPa | 0V | 00:00:00 | 00:00:00 | 00:00:00 | |
| SP9KGR-15 | 2026-09-01 00:08:44 | 49.23052 | 21.04332 | 116° | 42km/h | 16766m | 5.5m/s | -54.5°C | 1.8% | 97.3hPa | 0V | 00:00:00 | 00:00:00 | 00:00:00 | |
| GYPAP8-17 | 2026-09-01 00:08:43 | 49.23052 | 21.04332 | 116° | 42km/h | 16766m | 5.5m/s | -54.5°C | 1.8% | 97.3hPa | 0V | 00:00:00 | 00:00:00 | 00:00:00 | |
| SQ9EZE-13 | 2026-09-01 00:08:32 | 49.23102 | 21.04117 | 109° | 55km/h | 16712m | 3.4m/s | -54.5°C | 1.7% | 98.1hPa | 0V | 00:00:00 | 00:00:00 | 00:00:00 | |
| SP9KGR-15 | 2026-09-01 00:08:28 | 49.23117 | 21.04057 | 113° | 55km/h | 16700m | 3.5m/s | -54.5°C | 1.7% | 98.3hPa | 0V | 00:00:00 | 00:00:00 | 00:00:00 | |
| SQ9EZE-13 | 2026-09-01 00:08:16 | 49.23154 | 21.03790 | 106° | 62km/h | 16652m | 4.6m/s | -54.3°C | 1.7% | 99.0hPa | 0V | 00:00:00 | 00:00:00 | 00:00:00 | |
| SQ9EZE-15 | 2026-09-01 00:08:15 | 49.23158 | 21.03768 | 105° | 60km/h | 16647m | 5.4m/s | -54.5°C | 1.8% | 99.1hPa | 0V | 00:00:00 | 00:00:00 | 00:00:00 | |
| SP9KGR-15 | 2026-09-01 00:08:12 | 49.23166 | 21.03703 | 101° | 57km/h | 16633m | 4.2m/s | -55.0°C | 1.9% | 99.3hPa | 0V | 00:00:00 | 00:00:00 | 00:00:00 | |
| SQ9EZE-13 | 2026-09-01 00:08:01 | 49.23183 | 21.03435 | 94° | 68km/h | 16588m | 4.7m/s | -55.2°C | 1.9% | 100.0hPa | 0V | 00:00:00 | 00:00:00 | 00:00:00 | |
| SP9KGR-15 | 2026-09-01 00:07:56 | 49.23183 | 21.03311 | 89° | 62km/h | 16568m | 3.4m/s | -55.2°C | 1.9% | 100.3hPa | 0V | 00:00:00 | 00:00:00 | 00:00:00 | |
| SQ9EZE-15 | 2026-09-01 00:07:55 | 49.23183 | 21.03287 | 86° | 64km/h | 16564m | 4.3m/s | -55.2°C | 1.9% | 100.4hPa | 0V | 00:00:00 | 00:00:00 | 00:00:00 | |
| SQ9EZE-14 | 2026-09-01 00:07:48 | 49.23174 | 21.03108 | 84° | 66km/h | 16538m | 4.3m/s | -55.6°C | 1.9% | 100.8hPa | 0V | 00:00:00 | 00:00:00 | 00:00:00 | |
| SQ9EZE-13 | 2026-09-01 00:07:46 | 49.23169 | 21.03058 | 81° | 66km/h | 16530m | 3.5m/s | -55.6°C | 1.9% | 100.9hPa | 0V | 00:00:00 | 00:00:00 | 00:00:00 | |
| SP9KGR-15 | 2026-09-01 00:07:41 | 49.23156 | 21.02929 | 79° | 69km/h | 16511m | 4.0m/s | -55.5°C | 1.9% | 101.2hPa | 0V | 00:00:00 | 00:00:00 | 00:00:00 | |
| SQ9EZE-14 | 2026-09-01 00:07:33 | 49.23128 | 21.02716 | 78° | 71km/h | 16479m | 4.9m/s | -55.7°C | 2.0% | 101.7hPa | 0V | 00:00:00 | 00:00:00 | 00:00:00 | |
| GYPAP8-17 | 2026-09-01 00:07:32 | 49.23124 | 21.02690 | 77° | 71km/h | 16475m | 4.0m/s | -55.7°C | 2.0% | 101.8hPa | 0V | 00:00:00 | 00:00:00 | 00:00:00 | |
| SQ9EZE-13 | 2026-09-01 00:07:30 | 49.23115 | 21.02635 | 74° | 75km/h | 16466m | 4.9m/s | -55.8°C | 2.0% | 101.9hPa | 0V | 00:00:00 | 00:00:00 | 00:00:00 | |
| SP9KGR-15 | 2026-09-01 00:07:25 | 49.23088 | 21.02498 | 73° | 73km/h | 16446m | 4.0m/s | -55.9°C | 2.0% | 102.3hPa | 0V | 00:00:00 | 00:00:00 | 00:00:00 | |
| SQ9EZE-13 | 2026-09-01 00:07:15 | 49.23023 | 21.02225 | 69° | 78km/h | 16405m | 3.2m/s | -56.0°C | 2.0% | 102.9hPa | 0V | 00:00:00 | 00:00:00 | 00:00:00 | |
| SP9KGR-15 | 2026-09-01 00:07:10 | 49.22980 | 21.02081 | 67° | 82km/h | 16384m | 3.8m/s | -55.9°C | 2.0% | 103.3hPa | 0V | 00:00:00 | 00:00:00 | 00:00:00 | |
| SP9KGR-15 | 2026-09-01 00:06:54 | 49.22836 | 21.01659 | 62° | 77km/h | 16319m | 3.6m/s | -55.9°C | 2.1% | 104.3hPa | 0V | 00:00:00 | 00:00:00 | 00:00:00 | |
| SQ9EZE-13 | 2026-09-01 00:06:44 | 49.22728 | 21.01390 | 57° | 71km/h | 16273m | 3.8m/s | -55.8°C | 2.1% | 105.1hPa | 0V | 00:00:00 | 00:00:00 | 00:00:00 | |
| SP9KGR-15 | 2026-09-01 00:06:38 | 49.22680 | 21.01275 | 59° | 69km/h | 16254m | 4.5m/s | -55.6°C | 2.1% | 105.4hPa | 0V | 00:00:00 | 00:00:00 | 00:00:00 | |
| SQ9EZE-13 | 2026-09-01 00:06:28 | 49.22579 | 21.01070 | 56° | 60km/h | 16214m | 3.3m/s | -55.5°C | 2.1% | 106.1hPa | 0V | 00:00:00 | 00:00:00 | 00:00:00 | |
| SQ9EZE-15 | 2026-09-01 00:06:27 | 49.22570 | 21.01051 | 57° | 62km/h | 16210m | 3.2m/s | -55.5°C | 2.1% | 106.1hPa | 0V | 00:00:00 | 00:00:00 | 00:00:00 | |
| SP9KGR-15 | 2026-09-01 00:06:22 | 49.22519 | 21.00948 | 52° | 68km/h | 16190m | 4.7m/s | -55.4°C | 2.1% | 106.4hPa | 0V | 00:00:00 | 00:00:00 | 00:00:00 | |
| SQ9EZE-13 | 2026-09-01 00:06:13 | 49.22422 | 21.00769 | 52° | 64km/h | 16155m | 3.5m/s | -55.4°C | 2.1% | 107.0hPa | 0V | 00:00:00 | 00:00:00 | 00:00:00 | |
| SP9KGR-15 | 2026-09-01 00:06:08 | 49.22352 | 21.00637 | 52° | 62km/h | 16128m | 4.6m/s | -55.2°C | 2.1% | 107.5hPa | 0V | 00:00:00 | 00:00:00 | 00:00:00 | |
| SQ9EZE-13 | 2026-09-01 00:05:58 | 49.22263 | 21.00472 | 54° | 60km/h | 16092m | 4.5m/s | -55.0°C | 2.1% | 108.1hPa | 0V | 00:00:00 | 00:00:00 | 00:00:00 | |
| SP9KGR-15 | 2026-09-01 00:05:52 | 49.22210 | 21.00368 | 54° | 53km/h | 16067m | 4.6m/s | -54.9°C | 2.1% | 108.6hPa | 0V | 00:00:00 | 00:00:00 | 00:00:00 | |
| SQ9EZE-13 | 2026-09-01 00:05:42 | 49.22126 | 21.00205 | 50° | 55km/h | 16028m | 4.3m/s | -54.8°C | 2.1% | 109.2hPa | 0V | 00:00:00 | 00:00:00 | 00:00:00 | |
| SP9KGR-15 | 2026-09-01 00:05:38 | 49.22086 | 21.00130 | 56° | 47km/h | 16007m | 3.7m/s | -54.8°C | 2.1% | 109.6hPa | 0V | 00:00:00 | 00:00:00 | 00:00:00 | |
| SQ9EZE-14 | 2026-09-01 00:05:32 | 49.22049 | 21.00051 | 52° | 49km/h | 15987m | 4.0m/s | -54.8°C | 2.1% | 109.9hPa | 0V | 00:00:00 | 00:00:00 | 00:00:00 | |
| SQ9EZE-13 | 2026-09-01 00:05:26 | 49.22010 | 20.99982 | 50° | 44km/h | 15967m | 4.2m/s | -54.8°C | 2.1% | 110.3hPa | 0V | 00:00:00 | 00:00:00 | 00:00:00 | |
| SP9KGR-15 | 2026-09-01 00:05:22 | 49.21967 | 20.99897 | 52° | 44km/h | 15944m | 4.2m/s | -54.8°C | 2.1% | 110.7hPa | 0V | 00:00:00 | 00:00:00 | 00:00:00 | |
| SQ9EZE-15 | 2026-09-01 00:05:21 | 49.21967 | 20.99897 | 52° | 44km/h | 15944m | 4.2m/s | -54.8°C | 2.1% | 110.7hPa | 0V | 00:00:00 | 00:00:00 | 00:00:00 | |
| SQ9EZE-14 | 2026-09-01 00:05:16 | 49.21933 | 20.99833 | 53° | 38km/h | 15921m | 4.9m/s | -55.1°C | 2.2% | 111.0hPa | 0V | 00:00:00 | 00:00:00 | 00:00:00 | |
| SQ9EZE-13 | 2026-09-01 00:05:12 | 49.21910 | 20.99786 | 56° | 40km/h | 15904m | 3.1m/s | -55.1°C | 2.2% | 111.3hPa | 0V | 00:00:00 | 00:00:00 | 00:00:00 | |
| GYPAP8-17 | 2026-09-01 00:05:10 | 49.21899 | 20.99763 | 52° | 38km/h | 15895m | 4.1m/s | -55.2°C | 2.2% | 111.4hPa | 0V | 00:00:00 | 00:00:00 | 00:00:00 | |
| SP9KGR-15 | 2026-09-01 00:05:06 | 49.21874 | 20.99714 | 54° | 40km/h | 15880m | 3.3m/s | -55.4°C | 2.3% | 111.7hPa | 0V | 00:00:00 | 00:00:00 | 00:00:00 | |
| SQ9EZE-15 | 2026-09-01 00:05:02 | 49.21851 | 20.99656 | 67° | 33km/h | 15860m | 4.5m/s | -55.4°C | 2.3% | 112.1hPa | 0V | 00:00:00 | 00:00:00 | 00:00:00 | |
| SQ9EZE-13 | 2026-09-01 00:04:57 | 49.21834 | 20.99610 | 63° | 37km/h | 15844m | 3.6m/s | -55.5°C | 2.3% | 112.4hPa | 0V | 00:00:00 | 00:00:00 | 00:00:00 | |
| SP9KGR-15 | 2026-09-01 00:04:51 | 49.21807 | 20.99503 | 71° | 40km/h | 15815m | 3.8m/s | -55.4°C | 2.3% | 112.9hPa | 0V | 00:00:00 | 00:00:00 | 00:00:00 | |
| SQ9EZE-13 | 2026-09-01 00:04:40 | 49.21790 | 20.99383 | 81° | 40km/h | 15781m | 3.0m/s | -55.4°C | 2.3% | 113.5hPa | 0V | 00:00:00 | 00:00:00 | 00:00:00 | |
| SP9KGR-15 | 2026-09-01 00:04:35 | 49.21773 | 20.99297 | 75° | 40km/h | 15758m | 4.1m/s | -56.0°C | 2.5% | 113.9hPa | 0V | 00:00:00 | 00:00:00 | 00:00:00 | |
| SQ9EZE-13 | 2026-09-01 00:04:24 | 49.21750 | 20.99152 | 77° | 40km/h | 15718m | 3.7m/s | -55.7°C | 2.5% | 114.6hPa | 0V | 00:00:00 | 00:00:00 | 00:00:00 | |
| SP9KGR-15 | 2026-09-01 00:04:19 | 49.21740 | 20.99079 | 78° | 35km/h | 15699m | 4.5m/s | -55.6°C | 2.5% | 115.0hPa | 0V | 00:00:00 | 00:00:00 | 00:00:00 | |
| SQ9EZE-13 | 2026-09-01 00:04:08 | 49.21726 | 20.98925 | 82° | 40km/h | 15655m | 4.6m/s | -55.3°C | 2.4% | 115.8hPa | 0V | 00:00:00 | 00:00:00 | 00:00:00 | |
| GYPAP8-17 | 2026-09-01 00:04:07 | 49.21724 | 20.98910 | 80° | 38km/h | 15650m | 4.1m/s | -55.3°C | 2.4% | 115.9hPa | 0V | 00:00:00 | 00:00:00 | 00:00:00 | |
| SP9KGR-15 | 2026-09-01 00:04:05 | 49.21721 | 20.98868 | 88° | 37km/h | 15637m | 4.3m/s | -55.3°C | 2.4% | 116.1hPa | 0V | 00:00:00 | 00:00:00 | 00:00:00 | |
| SQ9EZE-15 | 2026-09-01 00:03:54 | 49.21715 | 20.98720 | 87° | 42km/h | 15597m | 3.3m/s | -55.2°C | 2.4% | 116.8hPa | 0V | 00:00:00 | 00:00:00 | 00:00:00 | |
| SQ9EZE-13 | 2026-09-01 00:03:53 | 49.21714 | 20.98686 | 91° | 46km/h | 15589m | 4.5m/s | -55.2°C | 2.4% | 117.0hPa | 0V | 00:00:00 | 00:00:00 | 00:00:00 | |
| SP9KGR-15 | 2026-09-01 00:03:51 | 49.21711 | 20.98617 | 88° | 46km/h | 15573m | 3.7m/s | -55.2°C | 2.4% | 117.3hPa | 0V | 00:00:00 | 00:00:00 | 00:00:00 | |
| SQ9EZE-13 | 2026-09-01 00:03:42 | 49.21706 | 20.98426 | 88° | 46km/h | 15530m | 4.0m/s | -55.0°C | 2.4% | 118.1hPa | 0V | 00:00:00 | 00:00:00 | 00:00:00 | |
| SP9KGR-15 | 2026-09-01 00:03:41 | 49.21707 | 20.98334 | 94° | 47km/h | 15510m | 4.2m/s | -55.1°C | 2.4% | 118.4hPa | 0V | 00:00:00 | 00:00:00 | 00:00:00 | |
| SQ9EZE-13 | 2026-09-01 00:03:35 | 49.21710 | 20.98147 | 91° | 46km/h | 15470m | 2.8m/s | -55.2°C | 2.6% | 119.2hPa | 0V | 00:00:00 | 00:00:00 | 00:00:00 | |
| SP9KGR-15 | 2026-09-01 00:03:34 | 49.21708 | 20.98074 | 88° | 51km/h | 15455m | 3.6m/s | -55.1°C | 2.5% | 119.4hPa | 0V | 00:00:00 | 00:00:00 | 00:00:00 | |
| SQ9EZE-14 | 2026-09-01 00:03:32 | 49.21710 | 20.97993 | 97° | 51km/h | 15441m | 4.0m/s | -55.1°C | 2.5% | 119.7hPa | 0V | 00:00:00 | 00:00:00 | 00:00:00 | |
| SQ9EZE-13 | 2026-09-01 00:03:25 | 49.21704 | 20.97867 | 84° | 51km/h | 15413m | 4.0m/s | -55.0°C | 2.5% | 120.3hPa | 0V | 00:00:00 | 00:00:00 | 00:00:00 | |
| SP9KGR-15 | 2026-09-01 00:03:22 | 49.21693 | 20.97769 | 78° | 51km/h | 15393m | 3.6m/s | -54.9°C | 2.5% | 120.6hPa | 0V | 00:00:00 | 00:00:00 | 00:00:00 | |
| SQ9EZE-14 | 2026-09-01 00:03:16 | 49.21681 | 20.97689 | 78° | 53km/h | 15378m | 4.9m/s | -54.9°C | 2.5% | 120.9hPa | 0V | 00:00:00 | 00:00:00 | 00:00:00 | |
| SQ9EZE-13 | 2026-09-01 00:03:13 | 49.21664 | 20.97550 | 79° | 57km/h | 15351m | 3.3m/s | -55.0°C | 2.6% | 121.4hPa | 0V | 00:00:00 | 00:00:00 | 00:00:00 | |
| GYPAP8-17 | 2026-09-01 00:03:07 | 49.21651 | 20.97469 | 75° | 51km/h | 15336m | 3.8m/s | -54.9°C | 2.5% | 121.7hPa | 0V | 00:00:00 | 00:00:00 | 00:00:00 | |
| SP9KGR-15 | 2026-09-01 00:03:05 | 49.21647 | 20.97450 | 74° | 51km/h | 15331m | 5.3m/s | -54.9°C | 2.5% | 121.8hPa | 0V | 00:00:00 | 00:00:00 | 00:00:00 | |
| SQ9EZE-13 | 2026-09-01 00:02:47 | 49.21605 | 20.97232 | 74° | 58km/h | 15289m | 4.2m/s | -54.9°C | 2.5% | 122.6hPa | 0V | 00:00:00 | 00:00:00 | 00:00:00 | |
| SP9KGR-15 | 2026-09-01 00:02:43 | 49.21573 | 20.97108 | 69° | 58km/h | 15267m | 3.6m/s | -54.7°C | 2.5% | 123.0hPa | 0V | 00:00:00 | 00:00:00 | 00:00:00 | |
| SQ9EZE-15 | 2026-09-01 00:02:37 | 49.21556 | 20.97044 | 66° | 62km/h | 15255m | 3.2m/s | -54.6°C | 2.5% | 123.2hPa | 0V | 00:00:00 | 00:00:00 | 00:00:00 | |
| SQ9EZE-13 | 2026-09-01 00:02:25 | 49.21511 | 20.96886 | 68° | 68km/h | 15228m | 4.5m/s | -54.8°C | 2.5% | 123.7hPa | 0V | 00:00:00 | 00:00:00 | 00:00:00 | |
| SP9KGR-15 | 2026-09-01 00:02:17 | 49.21471 | 20.96747 | 66° | 64km/h | 15207m | 4.4m/s | -54.7°C | 2.5% | 124.2hPa | 0V | 00:00:00 | 00:00:00 | 00:00:00 | |
| SQ9EZE-15 | 2026-09-01 00:02:08 | 49.21420 | 20.96593 | 63° | 66km/h | 15180m | 3.0m/s | -54.5°C | 2.5% | 124.6hPa | 0V | 00:00:00 | 00:00:00 | 00:00:00 | |
| SQ9EZE-13 | 2026-09-01 00:02:05 | 49.21404 | 20.96548 | 62° | 68km/h | 15173m | 3.2m/s | -54.4°C | 2.5% | 124.8hPa | 0V | 00:00:00 | 00:00:00 | 00:00:00 | |
| SP9KGR-15 | 2026-09-01 00:01:59 | 49.21254 | 20.96077 | 61° | 58km/h | 15097m | 2.9m/s | -54.3°C | 2.4% | 126.3hPa | 0V | 00:00:00 | 00:00:00 | 00:00:00 | |
| SQ9EZE-13 | 2026-09-01 00:01:43 | 49.21192 | 20.95866 | 71° | 62km/h | 15060m | 3.0m/s | -54.8°C | 2.4% | 127.0hPa | 0V | 00:00:00 | 00:00:00 | 00:00:00 | |
| SP9KGR-15 | 2026-09-01 00:01:37 | 49.21153 | 20.95730 | 71° | 69km/h | 15037m | 2.8m/s | -54.6°C | 2.4% | 127.4hPa | 0V | 00:00:00 | 00:00:00 | 00:00:00 | |
| SQ9EZE-13 | 2026-09-01 00:01:25 | 49.21107 | 20.95472 | 70° | 71km/h | 14998m | 3.2m/s | -54.8°C | 2.5% | 128.3hPa | 0V | 00:00:00 | 00:00:00 | 00:00:00 | |
| SP9KGR-15 | 2026-09-01 00:01:16 | 49.21072 | 20.95310 | 78° | 71km/h | 14977m | 4.5m/s | -54.9°C | 2.6% | 128.7hPa | 0V | 00:00:00 | 00:00:00 | 00:00:00 | |
| SP9KGR-15 | 2026-09-01 00:01:01 | 49.21002 | 20.94876 | 79° | 84km/h | 14921m | 3.0m/s | -54.9°C | 2.6% | 129.8hPa | 0V | 00:00:00 | 00:00:00 | 00:00:00 | |
| SQ9EZE-14 | 2026-09-01 00:01:00 | 49.20997 | 20.94845 | 79° | 84km/h | 14918m | 3.9m/s | -54.9°C | 2.6% | 129.9hPa | 0V | 00:00:00 | 00:00:00 | 00:00:00 | |
| SQ9EZE-13 | 2026-09-01 00:00:50 | 49.20952 | 20.94572 | 77° | 80km/h | 14885m | 3.3m/s | -54.7°C | 2.7% | 130.5hPa | 0V | 00:00:00 | 00:00:00 | 00:00:00 | |
| SP9KGR-15 | 2026-09-01 00:00:43 | 49.20926 | 20.94419 | 78° | 82km/h | 14868m | 3.3m/s | -54.6°C | 2.6% | 130.9hPa | 0V | 00:00:00 | 00:00:00 | 00:00:00 | |
| SQ9EZE-14 | 2026-09-01 00:00:41 | 49.20917 | 20.94359 | 77° | 78km/h | 14861m | 2.6m/s | -54.6°C | 2.6% | 131.1hPa | 0V | 00:00:00 | 00:00:00 | 00:00:00 | |
| SQ9EZE-15 | 2026-09-01 00:00:40 | 49.20917 | 20.94359 | 77° | 78km/h | 14861m | 2.6m/s | -54.6°C | 2.6% | 131.1hPa | 0V | 00:00:00 | 00:00:00 | 00:00:00 | |
| SQ9EZE-13 | 2026-09-01 00:00:32 | 49.20874 | 20.94125 | 76° | 82km/h | 14834m | 4.2m/s | -54.9°C | 2.7% | 131.6hPa | 0V | 00:00:00 | 00:00:00 | 00:00:00 | |
| SP9KGR-15 | 2026-09-01 00:00:28 | 49.20848 | 20.93971 | 79° | 78km/h | 14818m | 3.2m/s | -54.8°C | 2.7% | 131.9hPa | 0V | 00:00:00 | 00:00:00 | 00:00:00 | |
| GYPAP8-17 | 2026-09-01 00:00:27 | 49.20829 | 20.93849 | 75° | 82km/h | 14804m | 3.6m/s | -54.8°C | 2.7% | 132.2hPa | 0V | 00:00:00 | 00:00:00 | 00:00:00 | |
| OE3JTB-15 | 2026-09-01 00:00:23 | 49.20792 | 20.93659 | 75° | 80km/h | 14784m | 2.8m/s | 0°C | 0% | 0hPa | 0V | 00:00:00 | 00:00:00 | 00:00:00 | |
| SQ9EZE-13 | 2026-09-01 00:00:22 | 49.20792 | 20.93659 | 75° | 88km/h | 14784m | 2.9m/s | -54.8°C | 2.8% | 132.6hPa | 0V | 00:00:00 | 00:00:00 | 00:00:00 | |
| SP9KGR-15 | 2026-09-01 00:00:13 | 49.20759 | 20.93476 | 76° | 78km/h | 14764m | 3.8m/s | -54.9°C | 2.8% | 133.0hPa | 0V | 00:00:00 | 00:00:00 | 00:00:00 | |
| SQ9EZE-13 | 2026-09-01 00:00:02 | 49.20697 | 20.93185 | 72° | 78km/h | 14728m | 2.5m/s | -55.0°C | 2.8% | 133.8hPa | 0V | 00:00:00 | 00:00:00 | 00:00:00 | |
| SP9KGR-15 | 2026-08-31 23:59:54 | 49.20663 | 20.93017 | 75° | 77km/h | 14707m | 2.9m/s | -55.0°C | 2.9% | 134.2hPa | 0V | 00:00:00 | 00:00:00 | 00:00:00 | |
| SQ9EZE-13 | 2026-08-31 23:59:45 | 49.20614 | 20.92759 | 73° | 78km/h | 14677m | 3.1m/s | -54.7°C | 2.9% | 134.9hPa | 0V | 00:00:00 | 00:00:00 | 00:00:00 | |
| SP9KGR-15 | 2026-08-31 23:59:38 | 49.20570 | 20.92553 | 72° | 80km/h | 14653m | 4.1m/s | -54.6°C | 2.9% | 135.3hPa | 0V | 00:00:00 | 00:00:00 | 00:00:00 | |
| SQ9EZE-15 | 2026-08-31 23:59:32 | 49.20534 | 20.92382 | 73° | 78km/h | 14632m | 3.8m/s | -54.5°C | 2.9% | 135.9hPa | 0V | 00:00:00 | 00:00:00 | 00:00:00 | |
| SQ9EZE-13 | 2026-08-31 23:59:29 | 49.20515 | 20.92295 | 71° | 80km/h | 14620m | 4.2m/s | -54.4°C | 2.9% | 136.1hPa | 0V | 00:00:00 | 00:00:00 | 00:00:00 | |
| SP9KGR-15 | 2026-08-31 23:59:23 | 49.20475 | 20.92124 | 71° | 75km/h | 14597m | 4.7m/s | -54.3°C | 2.9% | 136.5hPa | 0V | 00:00:00 | 00:00:00 | 00:00:00 | |
| OE3JTB-15 | 2026-08-31 23:59:19 | 49.20443 | 20.91982 | 71° | 88km/h | 14579m | 3.8m/s | 0°C | 0% | 0hPa | 0V | 00:00:00 | 00:00:00 | 00:00:00 | |
| SQ9EZE-13 | 2026-08-31 23:59:13 | 49.20408 | 20.91827 | 72° | 82km/h | 14559m | 3.0m/s | -54.4°C | 3.1% | 137.4hPa | 0V | 00:00:00 | 00:00:00 | 00:00:00 | |
| GYPAP8-17 | 2026-08-31 23:59:09 | 49.20383 | 20.91711 | 72° | 77km/h | 14545m | 3.2m/s | -54.4°C | 3.0% | 137.7hPa | 0V | 00:00:00 | 00:00:00 | 00:00:00 | |
| SP9KGR-15 | 2026-08-31 23:59:07 | 49.20369 | 20.91654 | 71° | 82km/h | 14537m | 2.8m/s | -54.4°C | 3.1% | 137.8hPa | 0V | 00:00:00 | 00:00:00 | 00:00:00 | |
| SQ9EZE-13 | 2026-08-31 23:58:58 | 49.20301 | 20.91370 | 68° | 86km/h | 14508m | 3.8m/s | -54.2°C | 3.0% | 138.5hPa | 0V | 00:00:00 | 00:00:00 | 00:00:00 | |
| SP9KGR-15 | 2026-08-31 23:58:52 | 49.20256 | 20.91187 | 73° | 80km/h | 14486m | 2.8m/s | -54.3°C | 3.1% | 139.0hPa | 0V | 00:00:00 | 00:00:00 | 00:00:00 | |
| SQ9EZE-13 | 2026-08-31 23:58:42 | 49.20192 | 20.90878 | 71° | 82km/h | 14447m | 3.9m/s | -54.4°C | 3.1% | 139.8hPa | 0V | 00:00:00 | 00:00:00 | 00:00:00 | |
| SQ9EZE-14 | 2026-08-31 23:58:36 | 49.20151 | 20.90698 | 73° | 78km/h | 14422m | 4.2m/s | -54.5°C | 3.1% | 140.3hPa | 0V | 00:00:00 | 00:00:00 | 00:00:00 | |
| SQ9EZE-13 | 2026-08-31 23:58:27 | 49.20097 | 20.90414 | 72° | 93km/h | 14387m | 3.7m/s | -54.5°C | 3.1% | 141.1hPa | 0V | 00:00:00 | 00:00:00 | 00:00:00 | |
| OE3JTB-15 | 2026-08-31 23:58:26 | 49.20080 | 20.90348 | 69° | 88km/h | 14378m | 4.9m/s | 0°C | 0% | 0hPa | 0V | 00:00:00 | 01:21:02 | 00:00:00 | |
| SP9KGR-15 | 2026-08-31 23:58:21 | 49.20051 | 20.90224 | 74° | 82km/h | 14362m | 4.1m/s | -54.4°C | 3.1% | 141.6hPa | 0V | 00:00:00 | 00:00:00 | 00:00:00 | |
| SQ9EZE-13 | 2026-08-31 23:58:11 | 49.19979 | 20.89922 | 72° | 84km/h | 14321m | 4.3m/s | -54.2°C | 2.9% | 142.5hPa | 0V | 00:00:00 | 00:00:00 | 00:00:00 | |
| SP9KGR-15 | 2026-08-31 23:58:05 | 49.19934 | 20.89742 | 67° | 86km/h | 14295m | 4.0m/s | -54.1°C | 2.9% | 143.1hPa | 0V | 00:00:00 | 00:00:00 | 00:00:00 | |
| GYPAP8-17 | 2026-08-31 23:57:58 | 49.19869 | 20.89535 | 69° | 82km/h | 14265m | 5.4m/s | -54.0°C | 2.8% | 143.8hPa | 0V | 00:00:00 | 00:00:00 | 00:00:00 | |
| SQ9EZE-13 | 2026-08-31 23:57:56 | 49.19855 | 20.89476 | 72° | 80km/h | 14256m | 3.9m/s | -54.0°C | 2.8% | 144.0hPa | 0V | 00:00:00 | 00:00:00 | 00:00:00 | |
| SP9KGR-15 | 2026-08-31 23:57:50 | 49.19807 | 20.89286 | 68° | 91km/h | 14230m | 5.0m/s | -54.3°C | 2.9% | 144.6hPa | 0V | 00:00:00 | 00:00:00 | 00:00:00 | |
| OE3JTB-15 | 2026-08-31 23:57:41 | 49.19719 | 20.88971 | 68° | 93km/h | 14188m | 4.0m/s | 0°C | 0% | 0hPa | 0V | 00:00:00 | 00:00:00 | 00:00:00 | |
| SQ9EZE-13 | 2026-08-31 23:57:40 | 49.19719 | 20.88971 | 69° | 93km/h | 14188m | 4.1m/s | -54.8°C | 2.9% | 145.5hPa | 0V | 00:00:00 | 00:00:00 | 00:00:00 | |
| SP9KGR-15 | 2026-08-31 23:57:34 | 49.19656 | 20.88773 | 67° | 95km/h | 14163m | 3.4m/s | -54.8°C | 2.9% | 146.1hPa | 0V | 00:00:00 | 00:00:00 | 00:00:00 | |
| SQ9EZE-13 | 2026-08-31 23:57:25 | 49.19581 | 20.88485 | 68° | 89km/h | 14127m | 3.9m/s | -54.8°C | 3.0% | 147.0hPa | 0V | 00:00:00 | 00:00:00 | 00:00:00 | |
| SP9KGR-15 | 2026-08-31 23:57:18 | 49.19512 | 20.88261 | 66° | 89km/h | 14095m | 4.4m/s | -54.8°C | 3.0% | 147.7hPa | 0V | 00:00:00 | 00:00:00 | 00:00:00 | |
| SQ9EZE-13 | 2026-08-31 23:57:09 | 49.19436 | 20.87968 | 66° | 93km/h | 14059m | 4.8m/s | -54.6°C | 3.0% | 148.5hPa | 0V | 00:00:00 | 00:00:00 | 00:00:00 | |
| SQ9EZE-13 | 2026-08-31 23:56:53 | 49.19282 | 20.87447 | 66° | 97km/h | 13993m | 3.0m/s | -54.5°C | 3.0% | 150.0hPa | 0V | 00:00:00 | 00:00:00 | 00:00:00 | |
| GYPAP8-17 | 2026-08-31 23:56:50 | 49.19251 | 20.87349 | 64° | 93km/h | 13982m | 3.5m/s | -54.6°C | 3.0% | 150.3hPa | 0V | 00:00:00 | 00:00:00 | 00:00:00 | |
| SP9KGR-15 | 2026-08-31 23:56:48 | 49.19230 | 20.87283 | 67° | 95km/h | 13973m | 3.5m/s | -54.6°C | 3.0% | 150.5hPa | 0V | 00:00:00 | 00:00:00 | 00:00:00 | |
| SQ9EZE-13 | 2026-08-31 23:56:37 | 49.19115 | 20.86914 | 65° | 100km/h | 13926m | 3.3m/s | -54.3°C | 3.0% | 151.6hPa | 0V | 00:00:00 | 00:00:00 | 00:00:00 | |
| SP9KGR-15 | 2026-08-31 23:56:33 | 49.19073 | 20.86781 | 66° | 95km/h | 13909m | 4.1m/s | -54.2°C | 3.0% | 152.0hPa | 0V | 00:00:00 | 00:00:00 | 00:00:00 | |
| SQ9EZE-13 | 2026-08-31 23:56:22 | 49.18965 | 20.86412 | 63° | 93km/h | 13868m | 4.6m/s | -54.3°C | 2.9% | 153.0hPa | 0V | 00:00:00 | 00:00:00 | 00:00:00 | |
| SQ9EZE-14 | 2026-08-31 23:56:20 | 49.18945 | 20.86350 | 66° | 89km/h | 13860m | 3.9m/s | -54.4°C | 2.9% | 153.2hPa | 0V | 00:00:00 | 00:00:00 | 00:00:00 | |
| SP9KGR-15 | 2026-08-31 23:56:17 | 49.18919 | 20.86251 | 72° | 95km/h | 13847m | 4.0m/s | -54.5°C | 2.9% | 153.5hPa | 0V | 00:00:00 | 00:00:00 | 00:00:00 | |
| SQ9EZE-13 | 2026-08-31 23:56:06 | 49.18831 | 20.85894 | 74° | 88km/h | 13805m | 3.3m/s | -54.5°C | 3.0% | 154.5hPa | 0V | 00:00:00 | 00:00:00 | 00:00:00 | |
| SQ9EZE-14 | 2026-08-31 23:56:04 | 49.18817 | 20.85827 | 73° | 93km/h | 13798m | 3.0m/s | -54.4°C | 3.0% | 154.7hPa | 0V | 00:00:00 | 00:00:00 | 00:00:00 | |
| SP9KGR-15 | 2026-08-31 23:56:03 | 49.18803 | 20.85760 | 73° | 91km/h | 13790m | 3.8m/s | -54.3°C | 2.9% | 154.9hPa | 0V | 00:00:00 | 00:00:00 | 00:00:00 | |
| SQ9EZE-13 | 2026-08-31 23:55:51 | 49.18723 | 20.85392 | 70° | 89km/h | 13748m | 3.7m/s | -54.0°C | 2.9% | 155.9hPa | 0V | 00:00:00 | 00:00:00 | 00:00:00 | |
| SP9KGR-15 | 2026-08-31 23:55:46 | 49.18682 | 20.85227 | 72° | 91km/h | 13730m | 4.0m/s | -53.9°C | 2.8% | 156.4hPa | 0V | 00:00:00 | 00:00:00 | 00:00:00 | |
| SQ9EZE-13 | 2026-08-31 23:55:35 | 49.18598 | 20.84865 | 73° | 95km/h | 13691m | 3.5m/s | -53.7°C | 2.8% | 157.3hPa | 0V | 00:00:00 | 00:00:00 | 00:00:00 | |
| SP9KGR-15 | 2026-08-31 23:55:32 | 49.18567 | 20.84729 | 72° | 91km/h | 13677m | 4.4m/s | -53.5°C | 2.8% | 157.6hPa | 0V | 00:00:00 | 00:00:00 | 00:00:00 | |
| SQ9EZE-13 | 2026-08-31 23:55:20 | 49.18469 | 20.84338 | 72° | 97km/h | 13633m | 2.8m/s | -53.4°C | 2.8% | 158.7hPa | 0V | 00:00:00 | 00:00:00 | 00:00:00 | |
| SP9KGR-15 | 2026-08-31 23:55:15 | 49.18438 | 20.84201 | 71° | 91km/h | 13619m | 4.3m/s | -53.4°C | 2.8% | 159.0hPa | 0V | 00:00:00 | 00:00:00 | 00:00:00 | |
| SQ9EZE-13 | 2026-08-31 23:55:04 | 49.18346 | 20.83834 | 69° | 95km/h | 13577m | 4.3m/s | -53.8°C | 2.9% | 160.0hPa | 0V | 00:00:00 | 00:00:00 | 00:00:00 | |
| SP9KGR-15 | 2026-08-31 23:55:01 | 49.18307 | 20.83701 | 66° | 95km/h | 13564m | 3.2m/s | -53.9°C | 2.9% | 160.3hPa | 0V | 00:00:00 | 00:00:00 | 00:00:00 | |
| SQ9EZE-13 | 2026-08-31 23:54:48 | 49.18191 | 20.83298 | 67° | 100km/h | 13522m | 3.0m/s | -53.7°C | 3.0% | 161.4hPa | 0V | 00:00:00 | 00:00:00 | 00:00:00 | |
| SP9KGR-15 | 2026-08-31 23:54:45 | 49.18150 | 20.83158 | 67° | 100km/h | 13508m | 3.0m/s | -53.6°C | 2.9% | 161.7hPa | 0V | 00:00:00 | 00:00:00 | 00:00:00 | |
| GYPAP8-17 | 2026-08-31 23:54:36 | 49.18066 | 20.82891 | 64° | 97km/h | 13480m | 3.7m/s | -53.3°C | 2.9% | 162.4hPa | 0V | 00:00:00 | 00:00:00 | 00:00:00 | |
| SQ9EZE-13 | 2026-08-31 23:54:33 | 49.18021 | 20.82756 | 64° | 102km/h | 13467m | 3.3m/s | -53.2°C | 2.9% | 162.8hPa | 0V | 00:00:00 | 00:00:00 | 00:00:00 | |
| SP9KGR-15 | 2026-08-31 23:54:28 | 49.17977 | 20.82617 | 68° | 97km/h | 13452m | 3.4m/s | -53.0°C | 2.8% | 163.1hPa | 0V | 00:00:00 | 00:00:00 | 00:00:00 | |
| SQ9EZE-13 | 2026-08-31 23:54:17 | 49.17853 | 20.82214 | 66° | 97km/h | 13408m | 3.8m/s | -52.9°C | 2.9% | 164.3hPa | 0V | 00:00:00 | 00:00:00 | 00:00:00 | |
| SQ9EZE-15 | 2026-08-31 23:54:14 | 49.17834 | 20.82147 | 68° | 93km/h | 13399m | 4.3m/s | -53.0°C | 2.9% | 164.5hPa | 0V | 00:00:00 | 00:00:00 | 00:00:00 | |
| SP9KGR-15 | 2026-08-31 23:54:12 | 49.17815 | 20.82080 | 71° | 95km/h | 13391m | 4.5m/s | -53.0°C | 2.9% | 164.7hPa | 0V | 00:00:00 | 00:00:00 | 00:00:00 | |
| SQ9EZE-14 | 2026-08-31 23:54:04 | 49.17745 | 20.81810 | 64° | 97km/h | 13360m | 3.9m/s | -52.8°C | 2.9% | 165.5hPa | 0V | 00:00:00 | 00:00:00 | 00:00:00 | |
| SQ9EZE-13 | 2026-08-31 23:54:00 | 49.17701 | 20.81676 | 64° | 97km/h | 13345m | 3.9m/s | -52.7°C | 2.8% | 165.9hPa | 0V | 00:00:00 | 00:00:00 | 00:00:00 | |
| SP9KGR-15 | 2026-08-31 23:53:56 | 49.17658 | 20.81541 | 66° | 97km/h | 13329m | 4.0m/s | -52.9°C | 3.0% | 166.3hPa | 0V | 00:00:00 | 00:00:00 | 00:00:00 | |
| SQ9EZE-14 | 2026-08-31 23:53:48 | 49.17575 | 20.81275 | 67° | 93km/h | 13297m | 4.8m/s | -53.2°C | 3.1% | 167.1hPa | 0V | 00:00:00 | 00:00:00 | 00:00:00 | |
| SQ9EZE-13 | 2026-08-31 23:53:45 | 49.17546 | 20.81173 | 65° | 100km/h | 13286m | 4.6m/s | -53.8°C | 3.3% | 167.5hPa | 0V | 00:00:00 | 00:00:00 | 00:00:00 | |
| SP9KGR-15 | 2026-08-31 23:53:41 | 49.17498 | 20.81031 | 64° | 104km/h | 13269m | 3.3m/s | -54.0°C | 3.4% | 167.9hPa | 0V | 00:00:00 | 00:00:00 | 00:00:00 | |
| SQ9EZE-13 | 2026-08-31 23:53:30 | 49.17369 | 20.80678 | 59° | 99km/h | 13222m | 4.4m/s | -54.0°C | 3.5% | 169.1hPa | 0V | 00:00:00 | 00:00:00 | 00:00:00 | |
| SP9KGR-15 | 2026-08-31 23:53:26 | 49.17315 | 20.80552 | 58° | 97km/h | 13204m | 4.0m/s | -53.9°C | 3.6% | 169.5hPa | 0V | 00:00:00 | 00:00:00 | 00:00:00 | |
| SQ9EZE-13 | 2026-08-31 23:53:14 | 49.17149 | 20.80195 | 54° | 95km/h | 13152m | 4.2m/s | -53.5°C | 3.9% | 170.9hPa | 0V | 00:00:00 | 00:00:00 | 00:00:00 | |
| SP9KGR-15 | 2026-08-31 23:53:11 | 49.17092 | 20.80081 | 53° | 93km/h | 13135m | 3.1m/s | -53.4°C | 4.0% | 171.4hPa | 0V | 00:00:00 | 00:00:00 | 00:00:00 | |
| SQ9EZE-15 | 2026-08-31 23:53:08 | 49.17063 | 20.80024 | 54° | 95km/h | 13127m | 4.3m/s | -53.3°C | 4.0% | 171.6hPa | 0V | 00:00:00 | 00:00:00 | 00:00:00 | |
| GYPAP8-17 | 2026-08-31 23:53:00 | 49.16949 | 20.79794 | 55° | 89km/h | 13091m | 4.3m/s | -53.0°C | 4.1% | 172.5hPa | 0V | 00:00:00 | 00:00:00 | 00:00:00 | |
| SQ9EZE-13 | 2026-08-31 23:52:59 | 49.16923 | 20.79737 | 57° | 89km/h | 13083m | 5.1m/s | -53.0°C | 4.1% | 172.8hPa | 0V | 00:00:00 | 00:00:00 | 00:00:00 | |
| SP9KGR-15 | 2026-08-31 23:52:56 | 49.16887 | 20.79649 | 60° | 91km/h | 13070m | 3.9m/s | -52.9°C | 4.3% | 173.1hPa | 0V | 00:00:00 | 00:00:00 | 00:00:00 | |
| SQ9EZE-15 | 2026-08-31 23:52:48 | 49.16769 | 20.79407 | 53° | 95km/h | 13036m | 3.5m/s | -52.9°C | 4.3% | 174.0hPa | 0V | 00:00:00 | 00:00:00 | 00:00:00 | |
| SQ9EZE-13 | 2026-08-31 23:52:42 | 49.16701 | 20.79255 | 59° | 95km/h | 13015m | 4.1m/s | -53.0°C | 4.5% | 174.6hPa | 0V | 00:00:00 | 00:00:00 | 00:00:00 | |
| SP9KGR-15 | 2026-08-31 23:52:41 | 49.16676 | 20.79194 | 58° | 93km/h | 13006m | 4.4m/s | -52.9°C | 4.5% | 174.8hPa | 0V | 00:00:00 | 00:00:00 | 00:00:00 | |
| SQ9EZE-13 | 2026-08-31 23:52:27 | 49.16497 | 20.78774 | 61° | 100km/h | 12952m | 3.4m/s | -53.3°C | 4.9% | 176.3hPa | 0V | 00:00:00 | 00:00:00 | 00:00:00 | |
| SP9KGR-15 | 2026-08-31 23:52:24 | 49.16458 | 20.78670 | 61° | 106km/h | 12939m | 3.8m/s | -53.4°C | 4.9% | 176.6hPa | 0V | 00:00:00 | 00:00:00 | 00:00:00 | |
| SQ9EZE-13 | 2026-08-31 23:52:12 | 49.16286 | 20.78219 | 60° | 104km/h | 12887m | 4.2m/s | -53.5°C | 5.3% | 178.1hPa | 0V | 00:00:00 | 00:00:00 | 00:00:00 | |
| SP9KGR-15 | 2026-08-31 23:52:09 | 49.16259 | 20.78150 | 60° | 106km/h | 12880m | 4.0m/s | -53.5°C | 5.2% | 178.3hPa | 0V | 00:00:00 | 00:00:00 | 00:00:00 | |
| GYPAP8-17 | 2026-08-31 23:51:57 | 49.16100 | 20.77744 | 59° | 97km/h | 12831m | 4.4m/s | -53.8°C | 5.6% | 179.7hPa | 0V | 00:00:00 | 00:00:00 | 00:00:00 | |
| SQ9EZE-13 | 2026-08-31 23:51:55 | 49.16074 | 20.77681 | 58° | 97km/h | 12823m | 4.9m/s | -53.8°C | 5.5% | 179.9hPa | 0V | 00:00:00 | 00:00:00 | 00:00:00 | |
| SP9KGR-15 | 2026-08-31 23:51:53 | 49.16047 | 20.77618 | 58° | 99km/h | 12816m | 3.2m/s | -53.9°C | 5.5% | 180.1hPa | 0V | 00:00:00 | 00:00:00 | 00:00:00 | |
| SQ9EZE-14 | 2026-08-31 23:51:48 | 49.15973 | 20.77427 | 64° | 95km/h | 12794m | 4.5m/s | -54.0°C | 5.4% | 180.7hPa | 0V | 00:00:00 | 00:00:00 | 00:00:00 | |
| SQ9EZE-13 | 2026-08-31 23:51:40 | 49.15874 | 20.77159 | 57° | 100km/h | 12762m | 4.6m/s | -54.7°C | 5.9% | 181.6hPa | 0V | 00:00:00 | 00:00:00 | 00:00:00 | |
| SP9KGR-15 | 2026-08-31 23:51:38 | 49.15846 | 20.77094 | 57° | 104km/h | 12754m | 4.3m/s | -54.9°C | 6.0% | 181.8hPa | 0V | 00:00:00 | 00:00:00 | 00:00:00 | |
| SQ9EZE-14 | 2026-08-31 23:51:33 | 49.15771 | 20.76912 | 62° | 113km/h | 12733m | 3.0m/s | -54.8°C | 5.7% | 182.4hPa | 0V | 00:00:00 | 00:00:00 | 00:00:00 | |
| SQ9EZE-13 | 2026-08-31 23:51:24 | 49.15647 | 20.76579 | 54° | 108km/h | 12698m | 3.9m/s | -54.9°C | 5.9% | 183.4hPa | 0V | 00:00:00 | 00:00:00 | 00:00:00 | |
| SP9KGR-15 | 2026-08-31 23:51:22 | 49.15631 | 20.76546 | 52° | 108km/h | 12694m | 4.8m/s | -54.8°C | 5.8% | 183.5hPa | 0V | 00:00:00 | 00:00:00 | 00:00:00 | |
| SQ9EZE-15 | 2026-08-31 23:51:20 | 49.15597 | 20.76484 | 52° | 102km/h | 12683m | 4.8m/s | -54.7°C | 5.8% | 183.9hPa | 0V | 00:00:00 | 00:00:00 | 00:00:00 | |
| SQ9EZE-13 | 2026-08-31 23:51:08 | 49.15408 | 20.76042 | 54° | 100km/h | 12618m | 5.4m/s | -54.3°C | 5.5% | 185.7hPa | 0V | 00:00:00 | 00:00:00 | 00:00:00 | |
| SP9KGR-15 | 2026-08-31 23:51:07 | 49.15408 | 20.76042 | 54° | 100km/h | 12618m | 5.4m/s | -54.3°C | 5.5% | 185.7hPa | 0V | 00:00:00 | 00:00:00 | 00:00:00 | |
| GYPAP8-17 | 2026-08-31 23:50:54 | 49.15234 | 20.75614 | 60° | 89km/h | 12554m | 4.3m/s | -53.8°C | 5.4% | 187.5hPa | 0V | 00:00:00 | 00:00:00 | 00:00:00 | |
| SQ9EZE-13 | 2026-08-31 23:50:53 | 49.15223 | 20.75584 | 59° | 89km/h | 12550m | 4.0m/s | -53.8°C | 5.4% | 187.6hPa | 0V | 00:00:00 | 00:00:00 | 00:00:00 | |
| SP9KGR-15 | 2026-08-31 23:50:52 | 49.15211 | 20.75556 | 58° | 89km/h | 12546m | 4.4m/s | -53.7°C | 5.4% | 187.8hPa | 0V | 00:00:00 | 00:00:00 | 00:00:00 | |
| SP9KGR-15 | 2026-08-31 23:50:38 | 49.15015 | 20.75084 | 55° | 86km/h | 12483m | 4.2m/s | -53.4°C | 5.0% | 189.6hPa | 0V | 00:00:00 | 00:00:00 | 00:00:00 | |
| HA6NAB-11 | 2026-08-31 23:50:31 | 49.14854 | 20.74691 | 59° | 82km/h | 12429m | 3.8m/s | 0°C | 0% | 0hPa | 0V | 00:00:00 | 00:00:00 | 00:00:00 | |
| SQ9EZE-13 | 2026-08-31 23:50:28 | 49.14843 | 20.74664 | 59° | 82km/h | 12424m | 5.5m/s | -52.9°C | 4.9% | 191.5hPa | 0V | 00:00:00 | 00:00:00 | 00:00:00 | |
| SP9KGR-15 | 2026-08-31 23:50:25 | 49.14843 | 20.74664 | 59° | 82km/h | 12424m | 5.5m/s | -52.9°C | 4.9% | 191.5hPa | 0V | 00:00:00 | 00:00:00 | 00:00:00 | |
| HA6NAB-11 | 2026-08-31 23:50:14 | 49.14777 | 20.74504 | 61° | 84km/h | 12397m | 3.9m/s | 0°C | 0% | 0hPa | 0V | 00:00:00 | 00:00:00 | 00:00:00 | |
| SQ9EZE-13 | 2026-08-31 23:50:04 | 49.14670 | 20.74236 | 55° | 78km/h | 12360m | 3.1m/s | -52.4°C | 4.8% | 193.3hPa | 0V | 00:00:00 | 00:00:00 | 00:00:00 | |
| GYPAP8-17 | 2026-08-31 23:49:51 | 49.14535 | 20.73896 | 62° | 77km/h | 12311m | 4.3m/s | -51.9°C | 4.9% | 194.9hPa | 0V | 00:00:00 | 00:00:00 | 00:00:00 | |
| SP9KGR-15 | 2026-08-31 23:49:49 | 49.14504 | 20.73816 | 59° | 84km/h | 12299m | 3.7m/s | -51.8°C | 4.8% | 195.3hPa | 0V | 00:00:00 | 00:00:00 | 00:00:00 | |
| SQ9EZE-13 | 2026-08-31 23:49:45 | 49.14467 | 20.73738 | 51° | 84km/h | 12286m | 2.6m/s | -51.7°C | 4.6% | 195.6hPa | 0V | 00:00:00 | 00:00:00 | 00:00:00 | |
| SP9KGR-15 | 2026-08-31 23:49:32 | 49.14327 | 20.73403 | 69° | 73km/h | 12225m | 3.1m/s | -51.2°C | 4.9% | 197.5hPa | 0V | 00:00:00 | 00:00:00 | 00:00:00 | |
| SP9KGR-15 | 2026-08-31 23:49:17 | 49.14190 | 20.73017 | 82° | 64km/h | 12152m | 7.0m/s | -50.8°C | 4.8% | 199.7hPa | 0V | 00:00:00 | 00:00:00 | 00:00:00 | |
| HA6NAB-11 | 2026-08-31 23:49:13 | 49.14170 | 20.72886 | 66° | 73km/h | 12127m | 5.2m/s | 0°C | 0% | 0hPa | 0V | 00:00:00 | 00:00:00 | 00:00:00 | |
| SQ9EZE-13 | 2026-08-31 23:49:08 | 49.14133 | 20.72787 | 65° | 77km/h | 12107m | 5.4m/s | -50.5°C | 5.0% | 201.1hPa | 0V | 00:00:00 | 00:00:00 | 00:00:00 | |
| HA6NAB-11 | 2026-08-31 23:49:05 | 49.14113 | 20.72699 | 77° | 82km/h | 12092m | 5.3m/s | 0°C | 0% | 0hPa | 0V | 00:00:00 | 00:00:00 | 00:00:00 | |
| SP9KGR-15 | 2026-08-31 23:49:01 | 49.14093 | 20.72584 | 73° | 73km/h | 12069m | 5.1m/s | -50.3°C | 5.4% | 202.2hPa | 0V | 00:00:00 | 00:00:00 | 00:00:00 | |
| HA6NAB-11 | 2026-08-31 23:48:58 | 49.14077 | 20.72502 | 77° | 75km/h | 12057m | 3.5m/s | 0°C | 0% | 0hPa | 0V | 00:00:00 | 00:00:00 | 00:00:00 | |
| SQ9EZE-13 | 2026-08-31 23:48:53 | 49.14052 | 20.72335 | 74° | 75km/h | 12033m | 3.2m/s | -50.7°C | 6.3% | 203.4hPa | 0V | 00:00:00 | 00:00:00 | 00:00:00 | |
| GYPAP8-17 | 2026-08-31 23:48:48 | 49.14022 | 20.72191 | 80° | 80km/h | 12016m | 4.9m/s | -50.9°C | 7.0% | 203.9hPa | 0V | 00:00:00 | 00:00:00 | 00:00:00 | |
| SP9KGR-15 | 2026-08-31 23:48:45 | 49.14018 | 20.72130 | 92° | 80km/h | 12006m | 4.9m/s | -51.0°C | 7.2% | 204.2hPa | 0V | 00:00:00 | 00:00:00 | 00:00:00 | |
| SQ9EZE-15 | 2026-08-31 23:48:44 | 49.14019 | 20.72099 | 94° | 80km/h | 12001m | 4.7m/s | -51.1°C | 7.4% | 204.4hPa | 0V | 00:00:00 | 00:00:00 | 00:00:00 | |
| SQ9EZE-13 | 2026-08-31 23:48:34 | 49.13997 | 20.71809 | 81° | 86km/h | 11959m | 2.0m/s | -51.4°C | 8.7% | 205.7hPa | 0V | 00:00:00 | 00:00:00 | 00:00:00 | |
| SP9KGR-15 | 2026-08-31 23:48:29 | 49.13990 | 20.71631 | 89° | 99km/h | 11933m | 5.3m/s | -52.0°C | 9.9% | 206.5hPa | 0V | 00:00:00 | 00:00:00 | 00:00:00 | |
| SQ9EZE-13 | 2026-08-31 23:48:19 | 49.13975 | 20.71272 | 93° | 99km/h | 11889m | 3.2m/s | -52.8°C | 12.4% | 207.9hPa | 0V | 00:00:00 | 00:00:00 | 00:00:00 | |
| SP9KGR-15 | 2026-08-31 23:48:13 | 49.13972 | 20.71050 | 87° | 99km/h | 11866m | 3.6m/s | -54.8°C | 15.1% | 208.7hPa | 0V | 00:00:00 | 00:00:00 | 00:00:00 | |
| SP9KGR-15 | 2026-08-31 23:47:57 | 49.13966 | 20.70378 | 89° | 106km/h | 11810m | 5.4m/s | -54.5°C | 15.5% | 210.5hPa | 0V | 00:00:00 | 00:00:00 | 00:00:00 | |
| HA6NAB-11 | 2026-08-31 23:47:49 | 49.13960 | 20.70055 | 91° | 108km/h | 11781m | 3.1m/s | 0°C | 0% | 0hPa | 0V | 00:00:00 | 00:00:00 | 00:00:00 | |
| GYPAP8-17 | 2026-08-31 23:47:46 | 49.13961 | 20.69891 | 90° | 106km/h | 11765m | 3.8m/s | -54.2°C | 16.2% | 212.1hPa | 0V | 00:00:00 | 00:00:00 | 00:00:00 | |
| HA6NAB-11 | 2026-08-31 23:47:44 | 49.13960 | 20.69810 | 88° | 106km/h | 11758m | 3.3m/s | 0°C | 0% | 0hPa | 0V | 00:00:00 | 00:00:00 | 00:00:00 | |
| SP9KGR-15 | 2026-08-31 23:47:41 | 49.13958 | 20.69729 | 89° | 104km/h | 11749m | 5.6m/s | -54.2°C | 16.1% | 212.7hPa | 0V | 00:00:00 | 00:00:00 | 00:00:00 | |
| SQ9EZE-13 | 2026-08-31 23:47:40 | 49.13956 | 20.69689 | 89° | 104km/h | 11744m | 3.9m/s | -54.1°C | 16.2% | 212.8hPa | 0V | 00:00:00 | 00:00:00 | 00:00:00 | |
| SQ9EZE-14 | 2026-08-31 23:47:39 | 49.13956 | 20.69649 | 89° | 106km/h | 11740m | 5.0m/s | -54.1°C | 16.1% | 212.9hPa | 0V | 00:00:00 | 00:00:00 | 00:00:00 | |
| HA6NAB-11 | 2026-08-31 23:47:36 | 49.13952 | 20.69525 | 89° | 108km/h | 11727m | 5.5m/s | 0°C | 0% | 0hPa | 0V | 00:00:00 | 00:00:00 | 00:00:00 | |
| SQ9EZE-15 | 2026-08-31 23:47:31 | 49.13947 | 20.69277 | 89° | 106km/h | 11702m | 5.1m/s | -54.0°C | 17.3% | 214.2hPa | 0V | 00:00:00 | 00:00:00 | 00:00:00 | |
| HA6NAB-11 | 2026-08-31 23:47:29 | 49.13946 | 20.69238 | 89° | 102km/h | 11698m | 3.6m/s | 0°C | 0% | 0hPa | 0V | 00:00:00 | 00:00:00 | 00:00:00 | |
| SP9KGR-15 | 2026-08-31 23:47:25 | 49.13937 | 20.69083 | 85° | 99km/h | 11682m | 4.2m/s | -54.1°C | 18.1% | 214.9hPa | 0V | 00:00:00 | 00:00:00 | 00:00:00 | |
| SQ9EZE-14 | 2026-08-31 23:47:24 | 49.13935 | 20.69045 | 86° | 99km/h | 11677m | 5.1m/s | -54.1°C | 18.0% | 215.0hPa | 0V | 00:00:00 | 00:00:00 | 00:00:00 | |
| SQ9EZE-15 | 2026-08-31 23:47:10 | 49.13912 | 20.68509 | 83° | 104km/h | 11613m | 5.5m/s | -53.8°C | 19.3% | 217.2hPa | 0V | 00:00:00 | 00:00:00 | 00:00:00 | |
| SP9KGR-15 | 2026-08-31 23:47:09 | 49.13909 | 20.68469 | 85° | 108km/h | 11608m | 4.3m/s | -53.8°C | 19.5% | 217.4hPa | 0V | 00:00:00 | 00:00:00 | 00:00:00 | |
| SQ9EZE-13 | 2026-08-31 23:47:08 | 49.13906 | 20.68428 | 86° | 106km/h | 11604m | 4.5m/s | -53.7°C | 19.9% | 217.5hPa | 0V | 00:00:00 | 00:00:00 | 00:00:00 | |
| SP9KGR-15 | 2026-08-31 23:46:54 | 49.13872 | 20.67881 | 75° | 86km/h | 11523m | 5.2m/s | -54.4°C | 25.3% | 220.2hPa | 0V | 00:00:00 | 00:00:00 | 00:00:00 | |
| SQ9EZE-13 | 2026-08-31 23:46:53 | 49.13872 | 20.67881 | 75° | 86km/h | 11523m | 5.2m/s | -54.4°C | 25.3% | 220.2hPa | 0V | 00:00:00 | 00:00:00 | 00:00:00 | |
| GYPAP8-17 | 2026-08-31 23:46:42 | 49.13829 | 20.67567 | 80° | 100km/h | 11462m | 8.8m/s | -54.5°C | 26.0% | 222.2hPa | 0V | 00:00:00 | 00:00:00 | 00:00:00 | |
| SP9KGR-15 | 2026-08-31 23:46:37 | 49.13823 | 20.67365 | 95° | 100km/h | 11432m | 4.8m/s | -54.3°C | 27.6% | 223.3hPa | 0V | 00:00:00 | 00:00:00 | 00:00:00 | |
| SQ9EZE-13 | 2026-08-31 23:46:22 | 49.13805 | 20.66815 | 89° | 93km/h | 11343m | 2.7m/s | -54.6°C | 31.3% | 226.4hPa | 0V | 00:00:00 | 00:00:00 | 00:00:00 | |
| SP9KGR-15 | 2026-08-31 23:46:21 | 49.13804 | 20.66779 | 91° | 93km/h | 11339m | 4.9m/s | -54.6°C | 31.3% | 226.5hPa | 0V | 00:00:00 | 00:00:00 | 00:00:00 | |
| SP9KGR-15 | 2026-08-31 23:46:07 | 49.13796 | 20.66101 | 89° | 113km/h | 11257m | 3.9m/s | -54.7°C | 37.8% | 229.5hPa | 0V | 00:00:00 | 00:00:00 | 00:00:00 | |
| SQ9EZE-15 | 2026-08-31 23:46:04 | 49.13791 | 20.65969 | 88° | 117km/h | 11243m | 4.8m/s | -54.6°C | 39.5% | 230.0hPa | 0V | 00:00:00 | 00:00:00 | 00:00:00 | |
| SP9KGR-15 | 2026-08-31 23:45:51 | 49.13750 | 20.65348 | 84° | 133km/h | 11188m | 5.2m/s | -54.8°C | 45.7% | 232.0hPa | 0V | 00:00:00 | 00:00:00 | 00:00:00 | |
| SQ9EZE-15 | 2026-08-31 23:45:43 | 49.13719 | 20.64999 | 82° | 124km/h | 11161m | 3.1m/s | -54.9°C | 52.4% | 233.1hPa | 0V | 00:00:00 | 00:00:00 | 00:00:00 | |
| GYPAP8-17 | 2026-08-31 23:45:40 | 49.13704 | 20.64859 | 81° | 120km/h | 11151m | 4.7m/s | -54.8°C | 53.9% | 233.4hPa | 0V | 00:00:00 | 00:00:00 | 00:00:00 | |
| SP9KGR-15 | 2026-08-31 23:45:35 | 49.13673 | 20.64557 | 82° | 142km/h | 11126m | 5.4m/s | -54.8°C | 54.8% | 234.3hPa | 0V | 00:00:00 | 00:00:00 | 00:00:00 | |
| SQ9EZE-14 | 2026-08-31 23:45:34 | 49.13666 | 20.64503 | 79° | 142km/h | 11122m | 4.5m/s | -54.9°C | 56.0% | 234.5hPa | 0V | 00:00:00 | 00:00:00 | 00:00:00 | |
| SP9KGR-15 | 2026-08-31 23:45:19 | 49.13582 | 20.63856 | 77° | 124km/h | 11048m | 5.9m/s | -54.5°C | 62.7% | 237.2hPa | 0V | 00:00:00 | 00:00:00 | 00:00:00 | |
| SQ9EZE-14 | 2026-08-31 23:45:18 | 49.13571 | 20.63758 | 83° | 130km/h | 11037m | 3.5m/s | -54.4°C | 62.3% | 237.6hPa | 0V | 00:00:00 | 00:00:00 | 00:00:00 | |
| SP9KGR-15 | 2026-08-31 23:45:04 | 49.13455 | 20.63194 | 63° | 97km/h | 10968m | 4.9m/s | -53.9°C | 61.1% | 240.1hPa | 0V | 00:00:00 | 00:00:00 | 00:00:00 | |
| SQ9EZE-13 | 2026-08-31 23:44:49 | 49.13279 | 20.62631 | 63° | 102km/h | 10899m | 7.1m/s | -53.3°C | 59.2% | 242.7hPa | 0V | 00:00:00 | 00:00:00 | 00:00:00 | |
| SP9KGR-15 | 2026-08-31 23:44:48 | 49.13268 | 20.62595 | 67° | 106km/h | 10892m | 7.8m/s | -53.2°C | 58.7% | 243.0hPa | 0V | 00:00:00 | 00:00:00 | 00:00:00 | |
| SQ9EZE-14 | 2026-08-31 23:44:46 | 49.13248 | 20.62514 | 74° | 117km/h | 10880m | 5.6m/s | -53.1°C | 57.8% | 243.5hPa | 0V | 00:00:00 | 00:00:00 | 00:00:00 | |
| SQ9EZE-15 | 2026-08-31 23:44:37 | 49.13181 | 20.62116 | 72° | 110km/h | 10840m | 5.6m/s | -52.7°C | 58.1% | 245.0hPa | 0V | 00:00:00 | 00:00:00 | 00:00:00 | |
| SP9KGR-15 | 2026-08-31 23:44:34 | 49.13148 | 20.61984 | 75° | 80km/h | 10815m | 7.6m/s | -52.5°C | 54.3% | 246.0hPa | 0V | 00:00:00 | 00:00:00 | 00:00:00 | |
| SP9KGR-15 | 2026-08-31 23:44:17 | 49.12992 | 20.61358 | 76° | 95km/h | 10727m | 8.1m/s | -51.6°C | 52.4% | 249.3hPa | 0V | 00:00:00 | 00:00:00 | 00:00:00 | |
| SQ9EZE-15 | 2026-08-31 23:44:16 | 49.12986 | 20.61325 | 75° | 86km/h | 10718m | 10.3m/s | -51.6°C | 52.0% | 249.7hPa | 0V | 00:00:00 | 00:00:00 | 00:00:00 | |
| SP9KGR-15 | 2026-08-31 23:44:02 | 49.12841 | 20.60851 | 80° | 84km/h | 10609m | 7.1m/s | -50.6°C | 47.9% | 253.7hPa | 0V | 00:00:00 | 00:00:00 | 00:00:00 | |
| SP9KGR-15 | 2026-08-31 23:43:47 | 49.12690 | 20.60351 | 78° | 77km/h | 10529m | 3.0m/s | -49.8°C | 46.4% | 256.9hPa | 0V | 00:00:00 | 00:00:00 | 00:00:00 | |
| SQ9EZE-13 | 2026-08-31 23:43:42 | 49.12668 | 20.60230 | 69° | 91km/h | 10513m | 5.8m/s | -49.7°C | 46.0% | 257.6hPa | 0V | 00:00:00 | 00:00:00 | 00:00:00 | |
| GYPAP8-17 | 2026-08-31 23:43:33 | 49.12556 | 20.59971 | 62° | 91km/h | 10459m | 5.2m/s | -49.1°C | 47.1% | 259.8hPa | 0V | 00:00:00 | 00:00:00 | 00:00:00 | |
| SP9KGR-15 | 2026-08-31 23:43:31 | 49.12535 | 20.59907 | 68° | 93km/h | 10450m | 7.0m/s | -49.1°C | 44.8% | 260.1hPa | 0V | 00:00:00 | 00:00:00 | 00:00:00 | |
| SQ9EZE-13 | 2026-08-31 23:43:26 | 49.12497 | 20.59758 | 69° | 75km/h | 10417m | 4.9m/s | -48.7°C | 42.3% | 261.4hPa | 0V | 00:00:00 | 00:00:00 | 00:00:00 | |
| OM5KV | 2026-08-31 23:43:16 | 49.12387 | 20.59429 | 51° | 99km/h | 10363m | 4.8m/s | 0°C | 0% | 0hPa | 0V | 00:00:00 | 00:00:00 | 00:00:00 | |
| SP9KGR-15 | 2026-08-31 23:43:15 | 49.12371 | 20.59401 | 49° | 93km/h | 10358m | 4.8m/s | -48.2°C | 40.2% | 263.7hPa | 0V | 00:00:00 | 00:00:00 | 00:00:00 | |
| SQ9EZE-15 | 2026-08-31 23:43:11 | 49.12301 | 20.59282 | 51° | 78km/h | 10336m | 4.3m/s | -48.0°C | 38.8% | 264.5hPa | 0V | 00:00:00 | 00:00:00 | 00:00:00 | |
| SQ9EZE-13 | 2026-08-31 23:43:09 | 49.12289 | 20.59258 | 53° | 80km/h | 10332m | 4.5m/s | -47.9°C | 38.9% | 264.7hPa | 0V | 00:00:00 | 00:00:00 | 00:00:00 | |
| SP9KGR-15 | 2026-08-31 23:42:59 | 49.12158 | 20.58946 | 56° | 99km/h | 10284m | 2.3m/s | -47.5°C | 38.6% | 266.6hPa | 0V | 00:00:00 | 00:00:00 | 00:00:00 | |
| SQ9EZE-13 | 2026-08-31 23:42:53 | 49.12092 | 20.58785 | 69° | 77km/h | 10263m | 3.7m/s | -47.2°C | 37.3% | 267.5hPa | 0V | 00:00:00 | 00:00:00 | 00:00:00 | |
| SQ9EZE-15 | 2026-08-31 23:42:49 | 49.12064 | 20.58664 | 71° | 93km/h | 10248m | 3.0m/s | -47.1°C | 37.7% | 268.2hPa | 0V | 00:00:00 | 00:00:00 | 00:00:00 | |
| SQ9EZE-14 | 2026-08-31 23:42:47 | 49.12039 | 20.58558 | 68° | 102km/h | 10235m | 3.9m/s | -47.0°C | 37.5% | 268.6hPa | 0V | 00:00:00 | 00:00:00 | 00:00:00 | |
| SP9KGR-15 | 2026-08-31 23:42:43 | 49.12003 | 20.58451 | 60° | 102km/h | 10221m | 5.7m/s | -46.9°C | 37.6% | 269.2hPa | 0V | 00:00:00 | 00:00:00 | 00:00:00 | |
| SQ9EZE-13 | 2026-08-31 23:42:37 | 49.11926 | 20.58295 | 52° | 78km/h | 10185m | 5.1m/s | -46.5°C | 36.6% | 270.7hPa | 0V | 00:00:00 | 00:00:00 | 00:00:00 | |
| SQ9EZE-14 | 2026-08-31 23:42:30 | 49.11834 | 20.58118 | 61° | 75km/h | 10146m | 4.6m/s | -46.2°C | 36.8% | 272.2hPa | 0V | 00:00:00 | 00:00:00 | 00:00:00 | |
| SP9KGR-15 | 2026-08-31 23:42:28 | 49.11818 | 20.58062 | 73° | 80km/h | 10140m | 4.3m/s | -46.1°C | 35.8% | 272.5hPa | 0V | 00:00:00 | 00:00:00 | 00:00:00 | |
| SQ9EZE-13 | 2026-08-31 23:42:21 | 49.11768 | 20.57865 | 57° | 77km/h | 10116m | 4.9m/s | -45.9°C | 37.8% | 273.5hPa | 0V | 00:00:00 | 00:00:00 | 00:00:00 | |
| GYPAP8-17 | 2026-08-31 23:42:20 | 49.11756 | 20.57840 | 54° | 86km/h | 10111m | 4.2m/s | -45.8°C | 38.3% | 273.7hPa | 0V | 00:00:00 | 00:00:00 | 00:00:00 | |
| SP9KGR-15 | 2026-08-31 23:42:13 | 49.11650 | 20.57616 | 62° | 106km/h | 10082m | 3.0m/s | -45.5°C | 39.4% | 275.0hPa | 0V | 00:00:00 | 00:00:00 | 00:00:00 | |
| SQ9EZE-13 | 2026-08-31 23:42:06 | 49.11571 | 20.57356 | 59° | 71km/h | 10047m | 6.0m/s | -45.2°C | 41.7% | 276.4hPa | 0V | 00:00:00 | 00:00:00 | 00:00:00 | |
| SP9KGR-15 | 2026-08-31 23:41:58 | 49.11474 | 20.57182 | 51° | 100km/h | 10016m | 6.1m/s | -45.1°C | 49.3% | 277.6hPa | 0V | 00:00:00 | 00:00:00 | 00:00:00 | |
| SQ9EZE-13 | 2026-08-31 23:41:50 | 49.11382 | 20.56945 | 67° | 78km/h | 9965m | 3.4m/s | -44.8°C | 53.0% | 279.7hPa | 0V | 00:00:00 | 00:00:00 | 00:00:00 | |
| SQ9EZE-15 | 2026-08-31 23:41:43 | 49.11287 | 20.56769 | 43° | 80km/h | 9932m | 3.0m/s | -44.5°C | 55.1% | 281.0hPa | 0V | 00:00:00 | 00:00:00 | 00:00:00 | |
| SQ9EZE-13 | 2026-08-31 23:41:34 | 49.11205 | 20.56587 | 61° | 60km/h | 9898m | 4.0m/s | -44.2°C | 58.3% | 282.5hPa | 0V | 00:00:00 | 00:00:00 | 00:00:00 | |
| SP9KGR-15 | 2026-08-31 23:41:28 | 49.11134 | 20.56441 | 51° | 84km/h | 9867m | 6.1m/s | -44.0°C | 62.2% | 283.8hPa | 0V | 00:00:00 | 00:00:00 | 00:00:00 | |
| HA6NAB-11 | 2026-08-31 23:41:22 | 49.11066 | 20.56311 | 55° | 80km/h | 9846m | 5.5m/s | 0°C | 0% | 0hPa | 0V | 00:00:00 | 00:00:00 | 00:00:00 | |
| SQ9EZE-13 | 2026-08-31 23:41:19 | 49.11030 | 20.56242 | 51° | 71km/h | 9827m | 4.5m/s | -43.7°C | 65.6% | 285.5hPa | 0V | 00:00:00 | 00:00:00 | 00:00:00 | |
| HA6NAB-11 | 2026-08-31 23:41:16 | 49.10996 | 20.56177 | 55° | 75km/h | 9810m | 5.6m/s | 0°C | 0% | 0hPa | 0V | 00:00:00 | 00:00:00 | 00:00:00 | |
| GYPAP8-17 | 2026-08-31 23:41:13 | 49.10964 | 20.56101 | 59° | 78km/h | 9797m | 2.9m/s | -43.4°C | 69.9% | 286.7hPa | 0V | 00:00:00 | 00:00:00 | 00:00:00 | |
| SP9KGR-15 | 2026-08-31 23:41:11 | 49.10944 | 20.56051 | 58° | 77km/h | 9787m | 6.2m/s | -43.3°C | 71.1% | 287.1hPa | 0V | 00:00:00 | 00:00:00 | 00:00:00 | |
| HA6NAB-11 | 2026-08-31 23:41:09 | 49.10923 | 20.56004 | 56° | 73km/h | 9776m | 3.9m/s | 0°C | 0% | 0hPa | 0V | 00:00:00 | 00:00:00 | 00:00:00 | |
| SP9KGR-15 | 2026-08-31 23:40:55 | 49.10774 | 20.55707 | 59° | 73km/h | 9713m | 2.5m/s | -42.7°C | 72.1% | 290.3hPa | 0V | 00:00:00 | 00:00:00 | 00:00:00 | |
| SQ9EZE-13 | 2026-08-31 23:40:48 | 49.10683 | 20.55525 | 50° | 91km/h | 9687m | 4.0m/s | -42.5°C | 66.8% | 291.4hPa | 0V | 00:00:00 | 00:00:00 | 00:00:00 | |
| SP9KGR-15 | 2026-08-31 23:40:40 | 49.10577 | 20.55305 | 52° | 73km/h | 9641m | 5.6m/s | -42.0°C | 64.0% | 293.5hPa | 0V | 00:00:00 | 00:00:00 | 00:00:00 | |
| SQ9EZE-13 | 2026-08-31 23:40:32 | 49.10493 | 20.55147 | 51° | 71km/h | 9610m | 3.8m/s | -41.7°C | 66.1% | 295.0hPa | 0V | 00:00:00 | 00:00:00 | 00:00:00 | |
| SQ9EZE-14 | 2026-08-31 23:40:30 | 49.10471 | 20.55105 | 54° | 69km/h | 9601m | 6.8m/s | -41.7°C | 67.4% | 295.3hPa | 0V | 00:00:00 | 00:00:00 | 00:00:00 | |
| SP9KGR-15 | 2026-08-31 23:40:23 | 49.10396 | 20.54925 | 58° | 84km/h | 9568m | 3.9m/s | -41.4°C | 64.5% | 296.8hPa | 0V | 00:00:00 | 00:00:00 | 00:00:00 | |
| GYPAP8-17 | 2026-08-31 23:40:20 | 49.10360 | 20.54845 | 54° | 82km/h | 9552m | 6.0m/s | -41.2°C | 64.7% | 297.4hPa | 0V | 00:00:00 | 00:00:00 | 00:00:00 | |
| SQ9EZE-13 | 2026-08-31 23:40:16 | 49.10307 | 20.54748 | 54° | 77km/h | 9530m | 5.1m/s | -41.0°C | 64.5% | 298.4hPa | 0V | 00:00:00 | 00:00:00 | 00:00:00 | |
| SQ9EZE-15 | 2026-08-31 23:40:15 | 49.10295 | 20.54725 | 55° | 77km/h | 9524m | 7.5m/s | -41.0°C | 64.2% | 298.6hPa | 0V | 00:00:00 | 00:00:00 | 00:00:00 | |
| SQ9EZE-14 | 2026-08-31 23:40:14 | 49.10285 | 20.54701 | 59° | 73km/h | 9517m | 4.9m/s | -40.9°C | 63.8% | 298.8hPa | 0V | 00:00:00 | 00:00:00 | 00:00:00 | |
| SP9KGR-15 | 2026-08-31 23:40:08 | 49.10226 | 20.54565 | 53° | 77km/h | 9487m | 7.4m/s | -40.6°C | 64.9% | 300.2hPa | 0V | 00:00:00 | 00:00:00 | 00:00:00 | |
| SQ9EZE-15 | 2026-08-31 23:39:55 | 49.10076 | 20.54234 | 59° | 80km/h | 9417m | 5.4m/s | -40.1°C | 72.3% | 303.2hPa | 0V | 00:00:00 | 00:00:00 | 00:00:00 | |
| SP9KGR-15 | 2026-08-31 23:39:53 | 49.10041 | 20.54157 | 55° | 86km/h | 9402m | 4.9m/s | -39.9°C | 70.9% | 303.9hPa | 0V | 00:00:00 | 00:00:00 | 00:00:00 | |
| SQ9EZE-13 | 2026-08-31 23:39:45 | 49.09953 | 20.53971 | 57° | 80km/h | 9366m | 5.1m/s | -39.6°C | 71.1% | 305.5hPa | 0V | 00:00:00 | 00:00:00 | 00:00:00 | |
| SP9KGR-15 | 2026-08-31 23:39:37 | 49.09873 | 20.53753 | 64° | 84km/h | 9328m | 3.7m/s | -39.3°C | 71.5% | 307.2hPa | 0V | 00:00:00 | 00:00:00 | 00:00:00 | |
| SQ9EZE-13 | 2026-08-31 23:39:29 | 49.09783 | 20.53543 | 51° | 78km/h | 9286m | 4.9m/s | -38.9°C | 71.3% | 309.1hPa | 0V | 00:00:00 | 00:00:00 | 00:00:00 | |
| GYPAP8-17 | 2026-08-31 23:39:27 | 49.09760 | 20.53495 | 58° | 78km/h | 9276m | 6.3m/s | -38.8°C | 71.4% | 309.6hPa | 0V | 00:00:00 | 00:00:00 | 00:00:00 | |
| SP9KGR-15 | 2026-08-31 23:39:21 | 49.09699 | 20.53333 | 58° | 82km/h | 9241m | 5.6m/s | -38.4°C | 68.0% | 311.1hPa | 0V | 00:00:00 | 00:00:00 | 00:00:00 | |
| SQ9EZE-13 | 2026-08-31 23:39:14 | 49.09607 | 20.53152 | 53° | 82km/h | 9200m | 5.0m/s | -38.0°C | 64.9% | 313.1hPa | 0V | 00:00:00 | 00:00:00 | 00:00:00 | |
| SP9KGR-15 | 2026-08-31 23:39:06 | 49.09510 | 20.52899 | 59° | 77km/h | 9155m | 6.3m/s | -37.6°C | 64.0% | 315.1hPa | 0V | 00:00:00 | 00:00:00 | 00:00:00 | |
| SQ9EZE-13 | 2026-08-31 23:38:58 | 49.09420 | 20.52718 | 53° | 91km/h | 9113m | 6.9m/s | -37.2°C | 63.5% | 317.0hPa | 0V | 00:00:00 | 00:00:00 | 00:00:00 | |
| SP9KGR-15 | 2026-08-31 23:38:50 | 49.09311 | 20.52495 | 57° | 89km/h | 9058m | 4.4m/s | -36.7°C | 61.9% | 319.6hPa | 0V | 00:00:00 | 00:00:00 | 00:00:00 | |
| SQ9EZE-15 | 2026-08-31 23:38:49 | 49.09298 | 20.52466 | 56° | 91km/h | 9053m | 6.9m/s | -36.6°C | 61.7% | 319.8hPa | 0V | 00:00:00 | 00:00:00 | 00:00:00 | |
| SQ9EZE-13 | 2026-08-31 23:38:43 | 49.09222 | 20.52310 | 52° | 77km/h | 9014m | 5.6m/s | -36.3°C | 58.4% | 321.6hPa | 0V | 00:00:00 | 00:00:00 | 00:00:00 | |
| SP9KGR-15 | 2026-08-31 23:38:35 | 49.09124 | 20.52088 | 62° | 75km/h | 8966m | 4.9m/s | -35.8°C | 61.9% | 323.7hPa | 0V | 00:00:00 | 00:00:00 | 00:00:00 | |
| SQ9EZE-15 | 2026-08-31 23:38:29 | 49.09049 | 20.51921 | 55° | 95km/h | 8937m | 5.4m/s | -35.6°C | 57.5% | 325.1hPa | 0V | 00:00:00 | 00:00:00 | 00:00:00 | |
| SQ9EZE-13 | 2026-08-31 23:38:28 | 49.09049 | 20.51921 | 55° | 95km/h | 8937m | 5.4m/s | -35.6°C | 57.5% | 325.1hPa | 0V | 00:00:00 | 00:00:00 | 00:00:00 | |
| SP9KGR-15 | 2026-08-31 23:38:18 | 49.08928 | 20.51645 | 62° | 75km/h | 8889m | 3.5m/s | -35.1°C | 56.4% | 327.4hPa | 0V | 00:00:00 | 00:00:00 | 00:00:00 | |
| SQ9EZE-14 | 2026-08-31 23:38:14 | 49.08888 | 20.51537 | 59° | 88km/h | 8873m | 3.5m/s | -34.9°C | 59.1% | 328.2hPa | 0V | 00:00:00 | 00:00:00 | 00:00:00 | |
| SQ9EZE-13 | 2026-08-31 23:38:12 | 49.08863 | 20.51480 | 56° | 88km/h | 8865m | 4.1m/s | -34.9°C | 58.7% | 328.6hPa | 0V | 00:00:00 | 00:00:00 | 00:00:00 | |
| SP9KGR-15 | 2026-08-31 23:38:03 | 49.08756 | 20.51246 | 59° | 73km/h | 8825m | 5.8m/s | -34.5°C | 56.7% | 330.4hPa | 0V | 00:00:00 | 00:00:00 | 00:00:00 | |
| SQ9EZE-14 | 2026-08-31 23:37:58 | 49.08697 | 20.51129 | 55° | 86km/h | 8800m | 5.8m/s | -34.3°C | 57.9% | 331.6hPa | 0V | 00:00:00 | 00:00:00 | 00:00:00 | |
| SQ9EZE-13 | 2026-08-31 23:37:57 | 49.08684 | 20.51102 | 58° | 86km/h | 8793m | 6.4m/s | -34.2°C | 58.2% | 331.9hPa | 0V | 00:00:00 | 00:00:00 | 00:00:00 | |
| SP9KGR-15 | 2026-08-31 23:37:48 | 49.08571 | 20.50847 | 51° | 86km/h | 8747m | 4.9m/s | -33.8°C | 62.1% | 334.0hPa | 0V | 00:00:00 | 00:00:00 | 00:00:00 | |
| SQ9EZE-13 | 2026-08-31 23:37:41 | 49.08489 | 20.50646 | 62° | 80km/h | 8713m | 4.1m/s | -33.5°C | 65.2% | 335.6hPa | 0V | 00:00:00 | 00:00:00 | 00:00:00 | |
| GYPAP8-17 | 2026-08-31 23:37:40 | 49.08471 | 20.50594 | 63° | 73km/h | 8703m | 5.2m/s | -33.4°C | 64.6% | 336.1hPa | 0V | 00:00:00 | 00:00:00 | 00:00:00 | |
| SP9KGR-15 | 2026-08-31 23:37:33 | 49.08396 | 20.50414 | 50° | 84km/h | 8664m | 5.3m/s | -33.2°C | 68.5% | 337.9hPa | 0V | 00:00:00 | 00:00:00 | 00:00:00 | |
| SQ9EZE-13 | 2026-08-31 23:37:25 | 49.08307 | 20.50235 | 57° | 78km/h | 8633m | 3.1m/s | -33.0°C | 70.8% | 339.5hPa | 0V | 00:00:00 | 00:00:00 | 00:00:00 | |
| SQ9EZE-15 | 2026-08-31 23:37:22 | 49.08273 | 20.50159 | 55° | 82km/h | 8622m | 3.4m/s | -32.9°C | 71.7% | 340.1hPa | 0V | 00:00:00 | 00:00:00 | 00:00:00 | |
| SP9KGR-15 | 2026-08-31 23:37:18 | 49.08211 | 20.50039 | 50° | 75km/h | 8601m | 4.8m/s | -32.8°C | 76.4% | 341.0hPa | 0V | 00:00:00 | 00:00:00 | 00:00:00 | |
| SQ9EZE-13 | 2026-08-31 23:37:10 | 49.08114 | 20.49843 | 56° | 80km/h | 8571m | 3.4m/s | -32.7°C | 79.4% | 342.5hPa | 0V | 00:00:00 | 00:00:00 | 00:00:00 | |
| SQ9EZE-15 | 2026-08-31 23:37:01 | 49.08009 | 20.49656 | 51° | 73km/h | 8541m | 3.7m/s | -32.5°C | 79.5% | 344.0hPa | 0V | 00:00:00 | 00:00:00 | 00:00:00 | |
| SQ9EZE-13 | 2026-08-31 23:36:54 | 49.07926 | 20.49498 | 51° | 77km/h | 8516m | 3.9m/s | -32.3°C | 79.8% | 345.2hPa | 0V | 00:00:00 | 00:00:00 | 00:00:00 | |
| SP9KGR-15 | 2026-08-31 23:36:46 | 49.07825 | 20.49336 | 47° | 75km/h | 8487m | 3.7m/s | -32.3°C | 82.1% | 346.6hPa | 0V | 00:00:00 | 00:00:00 | 00:00:00 | |
| GYPAP8-17 | 2026-08-31 23:36:40 | 49.07751 | 20.49209 | 48° | 69km/h | 8468m | 4.7m/s | -32.2°C | 82.9% | 347.5hPa | 0V | 00:00:00 | 00:00:00 | 00:00:00 | |
| SQ9EZE-13 | 2026-08-31 23:36:38 | 49.07727 | 20.49169 | 48° | 69km/h | 8459m | 3.8m/s | -32.2°C | 83.6% | 348.0hPa | 0V | 00:00:00 | 00:00:00 | 00:00:00 | |
| SP9KGR-15 | 2026-08-31 23:36:31 | 49.07645 | 20.49038 | 47° | 69km/h | 8431m | 3.2m/s | -32.6°C | 89.1% | 349.4hPa | 0V | 00:00:00 | 00:00:00 | 00:00:00 | |
| SQ9EZE-13 | 2026-08-31 23:36:23 | 49.07551 | 20.48888 | 50° | 68km/h | 8406m | 2.9m/s | -32.4°C | 88.2% | 350.7hPa | 0V | 00:00:00 | 00:00:00 | 00:00:00 | |
| SP9KGR-15 | 2026-08-31 23:36:15 | 49.07461 | 20.48742 | 46° | 62km/h | 8380m | 3.7m/s | -32.3°C | 88.8% | 352.0hPa | 0V | 00:00:00 | 00:00:00 | 00:00:00 | |
| SQ9EZE-13 | 2026-08-31 23:36:08 | 49.07374 | 20.48592 | 44° | 68km/h | 8351m | 3.9m/s | -32.0°C | 87.3% | 353.4hPa | 0V | 00:00:00 | 00:00:00 | 00:00:00 | |
| SP9KGR-15 | 2026-08-31 23:36:00 | 49.07282 | 20.48489 | 37° | 51km/h | 8322m | 4.2m/s | -31.8°C | 86.6% | 354.8hPa | 0V | 00:00:00 | 00:00:00 | 00:00:00 | |
| SQ9EZE-14 | 2026-08-31 23:35:57 | 49.07253 | 20.48447 | 47° | 58km/h | 8305m | 5.8m/s | -31.6°C | 86.8% | 355.7hPa | 0V | 00:00:00 | 00:00:00 | 00:00:00 | |
| SQ9EZE-15 | 2026-08-31 23:35:55 | 49.07229 | 20.48411 | 46° | 71km/h | 8295m | 5.4m/s | -31.5°C | 84.9% | 356.2hPa | 0V | 00:00:00 | 00:00:00 | 00:00:00 | |
| SQ9EZE-13 | 2026-08-31 23:35:51 | 49.07176 | 20.48331 | 43° | 73km/h | 8268m | 4.8m/s | -31.3°C | 85.6% | 357.6hPa | 0V | 00:00:00 | 00:00:00 | 00:00:00 | |
| SP9KGR-15 | 2026-08-31 23:35:44 | 49.07080 | 20.48231 | 44° | 57km/h | 8230m | 6.1m/s | -31.0°C | 85.0% | 359.5hPa | 0V | 00:00:00 | 00:00:00 | 00:00:00 | |
| SQ9EZE-14 | 2026-08-31 23:35:42 | 49.07060 | 20.48200 | 51° | 53km/h | 8217m | 5.9m/s | -30.9°C | 83.7% | 360.0hPa | 0V | 00:00:00 | 00:00:00 | 00:00:00 | |
| GYPAP8-17 | 2026-08-31 23:35:37 | 49.07010 | 20.48116 | 47° | 64km/h | 8189m | 7.4m/s | -30.7°C | 84.2% | 361.5hPa | 0V | 00:00:00 | 00:00:00 | 00:00:00 | |
| SQ9EZE-13 | 2026-08-31 23:35:36 | 49.06999 | 20.48099 | 48° | 60km/h | 8181m | 7.2m/s | -30.7°C | 83.9% | 361.8hPa | 0V | 00:00:00 | 00:00:00 | 00:00:00 | |
| SQ9EZE-15 | 2026-08-31 23:35:34 | 49.06979 | 20.48065 | 49° | 60km/h | 8168m | 8.0m/s | -30.5°C | 83.8% | 362.5hPa | 0V | 00:00:00 | 00:00:00 | 00:00:00 | |
| SP9KGR-15 | 2026-08-31 23:35:28 | 49.06914 | 20.47976 | 38° | 57km/h | 8138m | 3.8m/s | -30.3°C | 84.3% | 364.1hPa | 0V | 00:00:00 | 00:00:00 | 00:00:00 | |
| SQ9EZE-13 | 2026-08-31 23:35:21 | 49.06838 | 20.47884 | 47° | 47km/h | 8099m | 5.9m/s | -30.0°C | 84.3% | 366.0hPa | 0V | 00:00:00 | 00:00:00 | 00:00:00 | |
| SP9KGR-15 | 2026-08-31 23:35:12 | 49.06762 | 20.47745 | 46° | 55km/h | 8049m | 5.2m/s | -29.5°C | 80.4% | 368.6hPa | 0V | 00:00:00 | 00:00:00 | 00:00:00 | |
| SQ9EZE-13 | 2026-08-31 23:35:06 | 49.06698 | 20.47650 | 46° | 51km/h | 8013m | 5.4m/s | -29.1°C | 79.5% | 370.6hPa | 0V | 00:00:00 | 00:00:00 | 00:00:00 | |
| SP9KGR-15 | 2026-08-31 23:34:56 | 49.06621 | 20.47508 | 55° | 47km/h | 7966m | 5.7m/s | -28.7°C | 77.9% | 373.1hPa | 0V | 00:00:00 | 00:00:00 | 00:00:00 | |
| SQ9EZE-13 | 2026-08-31 23:34:49 | 49.06560 | 20.47395 | 46° | 60km/h | 7921m | 5.1m/s | -28.3°C | 75.8% | 375.3hPa | 0V | 00:00:00 | 00:00:00 | 00:00:00 | |
| SP9KGR-15 | 2026-08-31 23:34:41 | 49.06490 | 20.47283 | 48° | 51km/h | 7878m | 7.7m/s | -28.0°C | 73.9% | 377.6hPa | 0V | 00:00:00 | 00:00:00 | 00:00:00 | |
| SQ9EZE-13 | 2026-08-31 23:34:34 | 49.06429 | 20.47177 | 47° | 53km/h | 7839m | 5.2m/s | -27.8°C | 73.1% | 379.6hPa | 0V | 00:00:00 | 00:00:00 | 00:00:00 | |
| SP9KGR-15 | 2026-08-31 23:34:25 | 49.06349 | 20.47038 | 51° | 55km/h | 7795m | 7.0m/s | -27.5°C | 72.6% | 382.1hPa | 0V | 00:00:00 | 00:00:00 | 00:00:00 | |
| SQ9EZE-15 | 2026-08-31 23:34:20 | 49.06303 | 20.46947 | 53° | 60km/h | 7764m | 6.4m/s | -27.3°C | 70.7% | 383.6hPa | 0V | 00:00:00 | 00:00:00 | 00:00:00 | |
| SQ9EZE-13 | 2026-08-31 23:34:18 | 49.06284 | 20.46913 | 47° | 58km/h | 7753m | 7.4m/s | -27.2°C | 69.7% | 384.2hPa | 0V | 00:00:00 | 00:00:00 | 00:00:00 | |
| SP9KGR-15 | 2026-08-31 23:34:09 | 49.06203 | 20.46770 | 52° | 55km/h | 7704m | 4.3m/s | -27.1°C | 67.7% | 386.8hPa | 0V | 00:00:00 | 00:00:00 | 00:00:00 | |
| SQ9EZE-13 | 2026-08-31 23:34:03 | 49.06148 | 20.46656 | 62° | 60km/h | 7676m | 4.3m/s | -26.8°C | 66.9% | 388.4hPa | 0V | 00:00:00 | 00:00:00 | 00:00:00 | |
| SP9KGR-15 | 2026-08-31 23:33:54 | 49.06084 | 20.46490 | 53° | 53km/h | 7628m | 5.2m/s | -26.4°C | 65.0% | 391.0hPa | 0V | 00:00:00 | 00:00:00 | 00:00:00 | |
| SQ9EZE-14 | 2026-08-31 23:33:42 | 49.05988 | 20.46261 | 55° | 55km/h | 7558m | 5.9m/s | -26.3°C | 64.5% | 394.7hPa | 0V | 00:00:00 | 00:00:00 | 00:00:00 | |
| SP9KGR-15 | 2026-08-31 23:33:39 | 49.05964 | 20.46212 | 51° | 53km/h | 7543m | 4.7m/s | -26.2°C | 64.7% | 395.5hPa | 0V | 00:00:00 | 00:00:00 | 00:00:00 | |
| SQ9EZE-13 | 2026-08-31 23:33:32 | 49.05903 | 20.46115 | 51° | 57km/h | 7502m | 6.6m/s | -25.9°C | 65.3% | 397.7hPa | 0V | 00:00:00 | 00:00:00 | 00:00:00 | |
| SQ9EZE-14 | 2026-08-31 23:33:26 | 49.05844 | 20.46009 | 47° | 57km/h | 7467m | 5.7m/s | -26.2°C | 74.3% | 399.7hPa | 0V | 00:00:00 | 00:00:00 | 00:00:00 | |
| SP9KGR-15 | 2026-08-31 23:33:23 | 49.05815 | 20.45963 | 48° | 55km/h | 7450m | 6.7m/s | -26.1°C | 74.4% | 400.7hPa | 0V | 00:00:00 | 00:00:00 | 00:00:00 | |
| SQ9EZE-13 | 2026-08-31 23:33:16 | 49.05743 | 20.45845 | 49° | 69km/h | 7413m | 4.3m/s | -25.8°C | 73.3% | 402.7hPa | 0V | 00:00:00 | 00:00:00 | 00:00:00 | |
| GYPAP8-17 | 2026-08-31 23:33:12 | 49.05693 | 20.45778 | 41° | 64km/h | 7391m | 6.2m/s | -25.5°C | 71.6% | 403.9hPa | 0V | 00:00:00 | 00:00:00 | 00:00:00 | |
| SP9KGR-15 | 2026-08-31 23:33:07 | 49.05632 | 20.45693 | 41° | 66km/h | 7359m | 5.2m/s | -25.4°C | 73.7% | 405.8hPa | 0V | 00:00:00 | 00:00:00 | 00:00:00 | |
| SQ9EZE-13 | 2026-08-31 23:33:00 | 49.05540 | 20.45586 | 28° | 66km/h | 7326m | 3.5m/s | -25.1°C | 72.7% | 407.6hPa | 0V | 00:00:00 | 00:00:00 | 00:00:00 | |
| SP9KGR-15 | 2026-08-31 23:32:51 | 49.05418 | 20.45472 | 46° | 71km/h | 7276m | 7.7m/s | -24.6°C | 69.3% | 410.5hPa | 0V | 00:00:00 | 00:00:00 | 00:00:00 | |
| SQ9EZE-13 | 2026-08-31 23:32:44 | 49.05322 | 20.45340 | 34° | 66km/h | 7238m | 6.2m/s | -24.2°C | 67.9% | 412.6hPa | 0V | 00:00:00 | 00:00:00 | 00:00:00 | |
| SQ9EZE-15 | 2026-08-31 23:32:37 | 49.05230 | 20.45230 | 40° | 77km/h | 7199m | 5.5m/s | -23.9°C | 67.5% | 414.6hPa | 0V | 00:00:00 | 00:00:00 | 00:00:00 | |
| SP9KGR-15 | 2026-08-31 23:32:36 | 49.05215 | 20.45212 | 35° | 75km/h | 7194m | 4.4m/s | -23.9°C | 67.8% | 415.0hPa | 0V | 00:00:00 | 00:00:00 | 00:00:00 | |
| SQ9EZE-13 | 2026-08-31 23:32:28 | 49.05103 | 20.45110 | 39° | 55km/h | 7163m | 4.3m/s | -23.7°C | 66.7% | 416.7hPa | 0V | 00:00:00 | 00:00:00 | 00:00:00 | |
| SP9KGR-15 | 2026-08-31 23:32:21 | 49.04996 | 20.45005 | 30° | 86km/h | 7130m | 5.0m/s | -23.5°C | 65.9% | 418.6hPa | 0V | 00:00:00 | 00:00:00 | 00:00:00 | |
| GYPAP8-17 | 2026-08-31 23:32:20 | 49.04977 | 20.44989 | 29° | 86km/h | 7126m | 3.6m/s | -23.4°C | 66.1% | 418.9hPa | 0V | 00:00:00 | 00:00:00 | 00:00:00 | |
| SQ9EZE-15 | 2026-08-31 23:32:17 | 49.04922 | 20.44948 | 24° | 73km/h | 7113m | 5.7m/s | -23.3°C | 65.0% | 419.6hPa | 0V | 00:00:00 | 00:00:00 | 00:00:00 | |
| SQ9EZE-13 | 2026-08-31 23:32:13 | 49.04862 | 20.44912 | 25° | 58km/h | 7089m | 4.9m/s | -23.2°C | 64.8% | 421.0hPa | 0V | 00:00:00 | 00:00:00 | 00:00:00 | |
| SP9KGR-15 | 2026-08-31 23:32:06 | 49.04764 | 20.44802 | 44° | 80km/h | 7054m | 7.5m/s | -22.9°C | 63.5% | 423.0hPa | 0V | 00:00:00 | 00:00:00 | 00:00:00 | |
| SQ9EZE-13 | 2026-08-31 23:31:57 | 49.04645 | 20.44645 | 24° | 73km/h | 7005m | 6.4m/s | -22.4°C | 60.8% | 425.9hPa | 0V | 00:00:00 | 00:00:00 | 00:00:00 | |
| SQ9EZE-13 | 2026-08-31 23:31:42 | 49.04440 | 20.44429 | 34° | 78km/h | 6935m | 4.6m/s | -22.1°C | 61.0% | 430.0hPa | 0V | 00:00:00 | 00:00:00 | 00:00:00 | |
| GYPAP8-17 | 2026-08-31 23:31:36 | 49.04366 | 20.44327 | 41° | 47km/h | 6900m | 5.8m/s | -21.8°C | 59.2% | 432.0hPa | 0V | 00:00:00 | 00:00:00 | 00:00:00 | |
| SP9KGR-15 | 2026-08-31 23:31:34 | 49.04345 | 20.44309 | 28° | 49km/h | 6892m | 5.6m/s | -21.8°C | 59.0% | 432.6hPa | 0V | 00:00:00 | 00:00:00 | 00:00:00 | |
| SQ9EZE-13 | 2026-08-31 23:31:26 | 49.04229 | 20.44202 | 43° | 71km/h | 6849m | 5.3m/s | -21.5°C | 56.3% | 435.1hPa | 0V | 00:00:00 | 00:00:00 | 00:00:00 | |
| SQ9EZE-14 | 2026-08-31 23:31:25 | 49.04215 | 20.44184 | 43° | 69km/h | 6844m | 4.4m/s | -21.5°C | 56.7% | 435.4hPa | 0V | 00:00:00 | 00:00:00 | 00:00:00 | |
| SP9KGR-15 | 2026-08-31 23:31:19 | 49.04126 | 20.44089 | 23° | 69km/h | 6820m | 4.9m/s | -21.3°C | 55.7% | 436.9hPa | 0V | 00:00:00 | 00:00:00 | 00:00:00 | |
| SQ9EZE-14 | 2026-08-31 23:31:10 | 49.04023 | 20.44012 | 50° | 58km/h | 6777m | 5.4m/s | -20.9°C | 55.2% | 439.4hPa | 0V | 00:00:00 | 00:00:00 | 00:00:00 | |
| SP9KGR-15 | 2026-08-31 23:31:04 | 49.03948 | 20.43935 | 25° | 47km/h | 6752m | 4.7m/s | -20.7°C | 54.3% | 440.9hPa | 0V | 00:00:00 | 00:00:00 | 00:00:00 | |
| SQ9EZE-13 | 2026-08-31 23:30:55 | 49.03867 | 20.43816 | 35° | 58km/h | 6713m | 3.8m/s | -20.3°C | 52.7% | 443.2hPa | 0V | 00:00:00 | 00:00:00 | 00:00:00 | |
| SQ9EZE-15 | 2026-08-31 23:30:51 | 49.03815 | 20.43775 | 35° | 40km/h | 6689m | 5.1m/s | -20.2°C | 51.3% | 444.7hPa | 0V | 00:00:00 | 00:00:00 | 00:00:00 | |
| SP9KGR-15 | 2026-08-31 23:30:48 | 49.03798 | 20.43753 | 45° | 51km/h | 6681m | 4.3m/s | -20.1°C | 50.6% | 445.1hPa | 0V | 00:00:00 | 00:00:00 | 00:00:00 | |
| SQ9EZE-13 | 2026-08-31 23:30:39 | 49.03711 | 20.43659 | 25° | 37km/h | 6635m | 7.0m/s | -19.7°C | 49.0% | 447.8hPa | 0V | 00:00:00 | 00:00:00 | 00:00:00 | |
| SP9KGR-15 | 2026-08-31 23:30:32 | 49.03627 | 20.43608 | 28° | 55km/h | 6602m | 5.1m/s | -19.5°C | 46.8% | 449.8hPa | 0V | 00:00:00 | 00:00:00 | 00:00:00 | |
| SQ9EZE-13 | 2026-08-31 23:30:24 | 49.03551 | 20.43508 | 38° | 31km/h | 6554m | 7.6m/s | -19.3°C | 46.8% | 452.6hPa | 0V | 00:00:00 | 00:00:00 | 00:00:00 | |
| SP9KGR-15 | 2026-08-31 23:30:16 | 49.03496 | 20.43439 | 50° | 35km/h | 6508m | 4.2m/s | -18.9°C | 48.4% | 455.4hPa | 0V | 00:00:00 | 00:00:00 | 00:00:00 | |
| SQ9EZE-13 | 2026-08-31 23:30:09 | 49.03461 | 20.43360 | 45° | 40km/h | 6484m | 3.0m/s | -18.6°C | 48.6% | 456.9hPa | 0V | 00:00:00 | 00:00:00 | 00:00:00 | |
| GYPAP8-17 | 2026-08-31 23:30:07 | 49.03443 | 20.43340 | 35° | 46km/h | 6475m | 4.6m/s | -18.5°C | 49.0% | 457.5hPa | 0V | 00:00:00 | 00:00:00 | 00:00:00 | |
| SP9KGR-15 | 2026-08-31 23:30:00 | 49.03403 | 20.43265 | 69° | 33km/h | 6439m | 3.5m/s | -18.2°C | 49.0% | 459.6hPa | 0V | 00:00:00 | 00:00:00 | 00:00:00 | |
| SQ9EZE-13 | 2026-08-31 23:29:53 | 49.03368 | 20.43195 | 30° | 38km/h | 6413m | 4.6m/s | -18.0°C | 58.3% | 461.4hPa | 0V | 00:00:00 | 00:00:00 | 00:00:00 | |
| SP9KGR-15 | 2026-08-31 23:29:45 | 49.03306 | 20.43107 | 57° | 46km/h | 6383m | 2.6m/s | -17.8°C | 65.0% | 463.2hPa | 0V | 00:00:00 | 00:00:00 | 00:00:00 | |
| SQ9EZE-15 | 2026-08-31 23:29:43 | 49.03296 | 20.43082 | 63° | 35km/h | 6378m | 4.0m/s | -17.8°C | 65.2% | 463.6hPa | 0V | 00:00:00 | 00:00:00 | 00:00:00 | |
| SQ9EZE-13 | 2026-08-31 23:29:38 | 49.03265 | 20.43051 | 18° | 37km/h | 6361m | 3.5m/s | -17.6°C | 65.7% | 464.7hPa | 0V | 00:00:00 | 00:00:00 | 00:00:00 | |
| SP9KGR-15 | 2026-08-31 23:29:29 | 49.03205 | 20.42968 | 56° | 26km/h | 6319m | 5.3m/s | -17.2°C | 66.1% | 467.1hPa | 0V | 00:00:00 | 00:00:00 | 00:00:00 | |
| GYPAP8-17 | 2026-08-31 23:29:23 | 49.03158 | 20.42930 | 24° | 44km/h | 6295m | 3.0m/s | -16.9°C | 61.6% | 468.7hPa | 0V | 00:00:00 | 00:00:00 | 00:00:00 | |
| SQ9EZE-13 | 2026-08-31 23:29:22 | 49.03147 | 20.42923 | 28° | 46km/h | 6292m | 2.8m/s | -16.9°C | 60.8% | 468.8hPa | 0V | 00:00:00 | 00:00:00 | 00:00:00 | |
| SP9KGR-15 | 2026-08-31 23:29:14 | 49.03083 | 20.42846 | 66° | 27km/h | 6258m | 5.4m/s | -16.7°C | 69.6% | 470.9hPa | 0V | 00:00:00 | 00:00:00 | 00:00:00 | |
| SQ9EZE-14 | 2026-08-31 23:29:09 | 49.03071 | 20.42803 | 68° | 24km/h | 6241m | 3.6m/s | -16.6°C | 0% | 472.0hPa | 0V | 00:00:00 | 00:00:00 | 00:00:00 | |
| SQ9EZE-13 | 2026-08-31 23:29:07 | 49.03066 | 20.42785 | 68° | 27km/h | 6231m | 5.7m/s | -16.6°C | 75.0% | 472.5hPa | 0V | 00:00:00 | 00:00:00 | 00:00:00 | |
| SP9KGR-15 | 2026-08-31 23:28:59 | 49.03033 | 20.42712 | 57° | 24km/h | 6195m | 2.8m/s | -16.5°C | 73.5% | 474.8hPa | 0V | 00:00:00 | 00:00:00 | 00:00:00 | |
| SQ9EZE-14 | 2026-08-31 23:28:54 | 49.03010 | 20.42684 | 28° | 33km/h | 6181m | 3.4m/s | -16.4°C | 0% | 0hPa | 0V | 00:00:00 | 00:00:00 | 00:00:00 | |
| SQ9EZE-13 | 2026-08-31 23:28:51 | 49.02987 | 20.42669 | 27° | 33km/h | 6165m | 6.8m/s | -16.2°C | 68.7% | 476.7hPa | 0V | 00:00:00 | 00:00:00 | 00:00:00 | |
| SP9KGR-15 | 2026-08-31 23:28:43 | 49.02946 | 20.42592 | 56° | 29km/h | 6121m | 5.3m/s | -15.9°C | 65.5% | 479.6hPa | 0V | 00:00:00 | 00:00:00 | 00:00:00 | |
| GYPAP8-17 | 2026-08-31 23:28:38 | 49.02928 | 20.42556 | 53° | 35km/h | 6101m | 3.2m/s | -15.7°C | 61.9% | 480.8hPa | 0V | 00:00:00 | 00:00:00 | 00:00:00 | |
| SQ9EZE-13 | 2026-08-31 23:28:35 | 49.02908 | 20.42520 | 54° | 47km/h | 6086m | 5.6m/s | -15.6°C | 59.8% | 481.7hPa | 0V | 00:00:00 | 00:00:00 | 00:00:00 | |
| SP9KGR-15 | 2026-08-31 23:28:27 | 49.02864 | 20.42432 | 30° | 31km/h | 6048m | 2.7m/s | -15.4°C | 59.6% | 484.1hPa | 0V | 00:00:00 | 00:00:00 | 00:00:00 | |
| SQ9EZE-13 | 2026-08-31 23:28:19 | 49.02821 | 20.42367 | 58° | 24km/h | 6015m | 4.5m/s | -15.5°C | 75.8% | 486.2hPa | 0V | 00:00:00 | 00:00:00 | 00:00:00 | |
| SQ9EZE-15 | 2026-08-31 23:28:16 | 49.02811 | 20.42349 | 50° | 22km/h | 6006m | 2.3m/s | -15.7°C | 85.6% | 486.9hPa | 0V | 00:00:00 | 00:00:00 | 00:00:00 | |
| SP9KGR-15 | 2026-08-31 23:28:12 | 49.02790 | 20.42319 | 47° | 37km/h | 5989m | 5.9m/s | -15.6°C | 86.9% | 488.1hPa | 0V | 00:00:00 | 00:00:00 | 00:00:00 | |
| SQ9EZE-13 | 2026-08-31 23:28:03 | 49.02754 | 20.42206 | 75° | 35km/h | 5948m | 4.4m/s | -15.3°C | 87.2% | 490.8hPa | 0V | 00:00:00 | 00:00:00 | 00:00:00 | |
| SP9KGR-15 | 2026-08-31 23:27:56 | 49.02721 | 20.42123 | 61° | 40km/h | 5912m | 5.2m/s | -15.0°C | 86.3% | 493.2hPa | 0V | 00:00:00 | 00:00:00 | 00:00:00 | |
| GYPAP8-17 | 2026-08-31 23:27:54 | 49.02711 | 20.42095 | 65° | 40km/h | 5902m | 5.1m/s | -15.0°C | 86.0% | 493.8hPa | 0V | 00:00:00 | 00:00:00 | 00:00:00 | |
| SQ9EZE-13 | 2026-08-31 23:27:47 | 49.02674 | 20.42008 | 60° | 37km/h | 5874m | 4.5m/s | -14.8°C | 84.2% | 495.6hPa | 0V | 00:00:00 | 00:00:00 | 00:00:00 | |
| SP9KGR-15 | 2026-08-31 23:27:41 | 49.02645 | 20.41939 | 59° | 38km/h | 5849m | 4.3m/s | -14.7°C | 84.9% | 497.2hPa | 0V | 00:00:00 | 00:00:00 | 00:00:00 | |
| SQ9EZE-13 | 2026-08-31 23:27:31 | 49.02595 | 20.41820 | 58° | 40km/h | 5811m | 3.4m/s | -14.5°C | 88.6% | 499.8hPa | 0V | 00:00:00 | 00:00:00 | 00:00:00 | |
| SP9KGR-15 | 2026-08-31 23:27:25 | 49.02560 | 20.41736 | 60° | 49km/h | 5790m | 2.8m/s | -14.4°C | 87.2% | 501.1hPa | 0V | 00:00:00 | 00:00:00 | 00:00:00 | |
| SQ9EZE-13 | 2026-08-31 23:27:16 | 49.02525 | 20.41579 | 79° | 47km/h | 5752m | 4.7m/s | -14.1°C | 84.5% | 503.4hPa | 0V | 00:00:00 | 00:00:00 | 00:00:00 | |
| GYPAP8-17 | 2026-08-31 23:27:10 | 49.02496 | 20.41506 | 35° | 31km/h | 5723m | 4.8m/s | -13.8°C | 82.7% | 505.4hPa | 0V | 00:00:00 | 00:00:00 | 00:00:00 | |
| SP9KGR-15 | 2026-08-31 23:27:09 | 49.02490 | 20.41499 | 37° | 27km/h | 5718m | 5.9m/s | -13.8°C | 82.6% | 505.8hPa | 0V | 00:00:00 | 00:00:00 | 00:00:00 | |
| SQ9EZE-13 | 2026-08-31 23:27:00 | 49.02452 | 20.41430 | 51° | 29km/h | 5666m | 5.0m/s | -13.4°C | 81.4% | 509.4hPa | 0V | 00:00:00 | 00:00:00 | 00:00:00 | |
| SP9KGR-15 | 2026-08-31 23:26:54 | 49.02428 | 20.41382 | 76° | 26km/h | 5634m | 5.6m/s | -13.2°C | 80.7% | 511.5hPa | 0V | 00:00:00 | 00:00:00 | 00:00:00 | |
| SQ9EZE-14 | 2026-08-31 23:26:53 | 49.02427 | 20.41373 | 77° | 26km/h | 5628m | 7.5m/s | -13.1°C | 0% | 0hPa | 0V | 00:00:00 | 00:00:00 | 00:00:00 | |
| SQ9EZE-13 | 2026-08-31 23:26:45 | 49.02418 | 20.41284 | 68° | 27km/h | 5579m | 6.5m/s | -12.8°C | 81.9% | 515.2hPa | 0V | 00:00:00 | 00:00:00 | 00:00:00 | |
| SQ9EZE-14 | 2026-08-31 23:26:38 | 49.02374 | 20.41202 | 53° | 49km/h | 5541m | 3.2m/s | 0°C | 0% | 0hPa | 0V | 00:00:00 | 00:00:00 | 00:00:00 | |
| SQ9EZE-13 | 2026-08-31 23:26:29 | 49.02329 | 20.41080 | 68° | 29km/h | 5491m | 6.4m/s | -12.4°C | 86.0% | 521.1hPa | 0V | 00:00:00 | 00:00:00 | 00:00:00 | |
| GYPAP8-17 | 2026-08-31 23:26:26 | 49.02316 | 20.41046 | 55° | 38km/h | 5475m | 4.7m/s | -12.4°C | 92.6% | 522.1hPa | 0V | 00:00:00 | 00:00:00 | 00:00:00 | |
| SP9KGR-15 | 2026-08-31 23:26:22 | 49.02296 | 20.40992 | 78° | 42km/h | 5456m | 4.9m/s | -12.3°C | 95.7% | 523.4hPa | 0V | 00:00:00 | 00:00:00 | 00:00:00 | |
| SQ9EZE-15 | 2026-08-31 23:26:18 | 49.02292 | 20.40935 | 88° | 29km/h | 5439m | 3.9m/s | -12.3°C | 0% | 0hPa | 0V | 00:00:00 | 00:00:00 | 00:00:00 | |
| SQ9EZE-13 | 2026-08-31 23:26:12 | 49.02272 | 20.40858 | 60° | 49km/h | 5404m | 7.0m/s | -12.1°C | 99.3% | 527.0hPa | 0V | 00:00:00 | 00:00:00 | 00:00:00 | |
| SP9KGR-15 | 2026-08-31 23:26:08 | 49.02248 | 20.40769 | 75° | 47km/h | 5377m | 4.7m/s | -11.8°C | 0% | 528.9hPa | 0V | 00:00:00 | 00:00:00 | 00:00:00 | |
| SQ9EZE-13 | 2026-08-31 23:25:56 | 49.02238 | 20.40623 | 73° | 33km/h | 5320m | 5.4m/s | -11.4°C | 98.9% | 532.7hPa | 0V | 00:00:00 | 00:00:00 | 00:00:00 | |
| SP9KGR-15 | 2026-08-31 23:25:51 | 49.02210 | 20.40569 | 47° | 37km/h | 5292m | 3.6m/s | -11.1°C | 99.1% | 534.7hPa | 0V | 00:00:00 | 00:00:00 | 00:00:00 | |
| GYPAP8-17 | 2026-08-31 23:25:42 | 49.02171 | 20.40469 | 82° | 47km/h | 5243m | 8.3m/s | -10.7°C | 0% | 538.1hPa | 0V | 00:00:00 | 00:00:00 | 00:00:00 | |
| SQ9EZE-13 | 2026-08-31 23:25:41 | 49.02169 | 20.40451 | 83° | 46km/h | 5235m | 7.3m/s | -10.6°C | 95.8% | 538.6hPa | 0V | 00:00:00 | 00:00:00 | 00:00:00 | |
| SP9KGR-15 | 2026-08-31 23:25:36 | 49.02168 | 20.40369 | 81° | 22km/h | 5202m | 5.5m/s | -10.4°C | 96.2% | 541.0hPa | 0V | 00:00:00 | 00:00:00 | 00:00:00 | |
| SQ9EZE-13 | 2026-08-31 23:25:25 | 49.02118 | 20.40258 | 78° | 40km/h | 5146m | 5.7m/s | -10.1°C | 98.3% | 545.0hPa | 0V | 00:00:00 | 00:00:00 | 00:00:00 | |
| SP9KGR-15 | 2026-08-31 23:25:20 | 49.02114 | 20.40186 | 81° | 42km/h | 5114m | 6.0m/s | -9.9°C | 98.0% | 547.2hPa | 0V | 00:00:00 | 00:00:00 | 00:00:00 | |
| SQ9EZE-15 | 2026-08-31 23:25:12 | 49.02085 | 20.40046 | 84° | 49km/h | 5063m | 5.7m/s | -9.5°C | 0% | 0hPa | 0V | 00:00:00 | 00:00:00 | 00:00:00 | |
| SQ9EZE-13 | 2026-08-31 23:25:09 | 49.02078 | 20.39986 | 80° | 57km/h | 5048m | 4.3m/s | -9.4°C | 96.5% | 552.1hPa | 0V | 00:00:00 | 00:00:00 | 00:00:00 | |
| SP9KGR-15 | 2026-08-31 23:25:05 | 49.02059 | 20.39904 | 65° | 55km/h | 5026m | 6.1m/s | -9.2°C | 95.6% | 553.5hPa | 0V | 00:00:00 | 00:00:00 | 00:00:00 | |
| GYPAP8-17 | 2026-08-31 23:24:58 | 49.02023 | 20.39820 | 65° | 35km/h | 4983m | 5.4m/s | 0°C | 0% | 556.6hPa | 0V | 00:00:00 | 00:00:00 | 00:00:00 | |
| SQ9EZE-13 | 2026-08-31 23:24:54 | 49.02005 | 20.39754 | 68° | 53km/h | 4957m | 6.7m/s | -8.7°C | 93.1% | 558.3hPa | 0V | 00:00:00 | 00:00:00 | 00:00:00 | |
| SQ9EZE-15 | 2026-08-31 23:24:51 | 49.01990 | 20.39696 | 72° | 53km/h | 4941m | 4.0m/s | 0°C | 0% | 0hPa | 0V | 00:00:00 | 00:00:00 | 00:00:00 | |
| SP9KGR-15 | 2026-08-31 23:24:49 | 49.01981 | 20.39662 | 72° | 46km/h | 4931m | 6.2m/s | -8.6°C | 93.0% | 560.2hPa | 0V | 00:00:00 | 00:00:00 | 00:00:00 | |
| SQ9EZE-13 | 2026-08-31 23:24:39 | 49.01937 | 20.39522 | 67° | 29km/h | 4887m | 5.3m/s | -8.4°C | 0% | 0hPa | 0V | 00:00:00 | 00:00:00 | 00:00:00 | |
| SQ9EZE-14 | 2026-08-31 23:24:37 | 49.01934 | 20.39500 | 93° | 31km/h | 4876m | 5.0m/s | 0°C | 0% | 0hPa | 0V | 00:00:00 | 00:00:00 | 00:00:00 | |
| SP9KGR-15 | 2026-08-31 23:24:35 | 49.01938 | 20.39456 | 96° | 44km/h | 4860m | 5.7m/s | -8.3°C | 91.6% | 565.4hPa | 0V | 00:00:00 | 00:00:00 | 00:00:00 | |
| SQ9EZE-13 | 2026-08-31 23:24:24 | 49.01905 | 20.39275 | 66° | 51km/h | 4819m | 4.1m/s | -8.0°C | 0% | 0hPa | 0V | 00:00:00 | 00:00:00 | 00:00:00 | |
| SQ9EZE-14 | 2026-08-31 23:24:22 | 49.01895 | 20.39238 | 69° | 51km/h | 4812m | 4.0m/s | 0°C | 0% | 0hPa | 0V | 00:00:00 | 00:00:00 | 00:00:00 | |
| SP9KGR-15 | 2026-08-31 23:24:18 | 49.01882 | 20.39165 | 86° | 42km/h | 4792m | 3.8m/s | -7.9°C | 92.8% | 570.4hPa | 0V | 00:00:00 | 00:00:00 | 00:00:00 | |
| GYPAP8-17 | 2026-08-31 23:24:13 | 49.01871 | 20.39099 | 61° | 38km/h | 4763m | 5.0m/s | 0°C | 0% | 572.7hPa | 0V | 00:00:00 | 00:00:00 | 00:00:00 | |
| SQ9EZE-13 | 2026-08-31 23:24:08 | 49.01847 | 20.39024 | 71° | 53km/h | 4741m | 5.3m/s | -7.7°C | 0% | 0hPa | 0V | 00:00:00 | 00:00:00 | 00:00:00 | |
| SP9KGR-15 | 2026-08-31 23:24:04 | 49.01838 | 20.38921 | 94° | 55km/h | 4716m | 4.8m/s | -7.6°C | 0% | 576.1hPa | 0V | 00:00:00 | 00:00:00 | 00:00:00 | |
| SQ9EZE-13 | 2026-08-31 23:23:52 | 49.01814 | 20.38784 | 66° | 31km/h | 4657m | 5.7m/s | -8.1°C | 0% | 0hPa | 0V | 00:00:00 | 00:00:00 | 00:00:00 | |
| SP9KGR-15 | 2026-08-31 23:23:47 | 49.01797 | 20.38707 | 84° | 49km/h | 4625m | 6.9m/s | -8.0°C | 0% | 0hPa | 0V | 00:00:00 | 00:00:00 | 00:00:00 | |
| OM5KV | 2026-08-31 23:23:46 | 49.01797 | 20.38688 | 92° | 51km/h | 4617m | 6.5m/s | 0°C | 0% | 0hPa | 0V | 00:00:00 | 00:00:00 | 00:00:00 | |
| SQ9EZE-15 | 2026-08-31 23:23:41 | 49.01809 | 20.38615 | 99° | 31km/h | 4582m | 6.6m/s | 0°C | 0% | 0hPa | 0V | 00:00:00 | 00:00:00 | 00:00:00 | |
| SQ9EZE-13 | 2026-08-31 23:23:36 | 49.01810 | 20.38540 | 101° | 51km/h | 4552m | 7.6m/s | -7.7°C | 0% | 0hPa | 0V | 00:00:00 | 00:00:00 | 00:00:00 | |
| SP9KGR-15 | 2026-08-31 23:23:31 | 49.01827 | 20.38468 | 106° | 29km/h | 4517m | 6.3m/s | -7.5°C | 0% | 0hPa | 0V | 00:00:00 | 00:00:00 | 00:00:00 | |
| GYPAP8-17 | 2026-08-31 23:23:29 | 49.01827 | 20.38445 | 92° | 31km/h | 4504m | 8.3m/s | 0°C | 0% | 591.8hPa | 0V | 00:00:00 | 00:00:00 | 00:00:00 | |
| SQ9EZE-15 | 2026-08-31 23:23:21 | 49.01858 | 20.38315 | 113° | 33km/h | 4446m | 6.8m/s | 0°C | 0% | 0hPa | 0V | 00:00:00 | 00:00:00 | 00:00:00 | |
| SP9KGR-15 | 2026-08-31 23:23:15 | 49.01870 | 20.38236 | 113° | 53km/h | 4415m | 6.9m/s | 0°C | 0% | 0hPa | 0V | 00:00:00 | 00:00:00 | 00:00:00 | |
| SQ9EZE-13 | 2026-08-31 23:23:04 | 49.01908 | 20.38086 | 102° | 46km/h | 4351m | 5.9m/s | 0°C | 0% | 0hPa | 0V | 00:00:00 | 00:00:00 | 00:00:00 | |
| GYPAP8-17 | 2026-08-31 23:22:45 | 49.01979 | 20.37821 | 130° | 42km/h | 4246m | 5.6m/s | 0°C | 0% | 611.4hPa | 0V | 00:00:00 | 00:00:00 | 00:00:00 | |
| SQ9EZE-13 | 2026-08-31 23:22:38 | 49.02006 | 20.37763 | 99° | 26km/h | 4213m | 5.3m/s | 0°C | 0% | 0hPa | 0V | 00:00:00 | 00:00:00 | 00:00:00 | |
| SQ9EZE-14 | 2026-08-31 23:22:29 | 49.02033 | 20.37634 | 120° | 46km/h | 4160m | 4.1m/s | 0°C | 0% | 0hPa | 0V | 00:00:00 | 00:00:00 | 00:00:00 | |
| SQ9EZE-13 | 2026-08-31 23:22:22 | 49.02054 | 20.37549 | 108° | 24km/h | 4118m | 8.1m/s | 0°C | 0% | 0hPa | 0V | 00:00:00 | 00:00:00 | 00:00:00 | |
| GYPAP8-17 | 2026-08-31 23:22:00 | 49.02130 | 20.37336 | 136° | 24km/h | 3991m | 5.4m/s | 0°C | 0% | 631.8hPa | 0V | 00:00:00 | 00:00:00 | 00:00:00 | |
| GYPAP8-17 | 2026-08-31 23:21:23 | 49.02228 | 20.36901 | 122° | 29km/h | 3805m | 4.5m/s | 0°C | 0% | 646.7hPa | 0V | 00:00:00 | 00:00:00 | 00:00:00 | |
| GYPAP8-17 | 2026-08-31 23:21:03 | 49.02279 | 20.36679 | 113° | 44km/h | 3706m | 6.0m/s | 0°C | 0% | 654.6hPa | 0V | 00:00:00 | 00:00:00 | 00:00:00 | |
| GYPAP8-17 | 2026-08-31 23:20:19 | 49.02397 | 20.36100 | 110° | 40km/h | 3501m | 4.5m/s | 0°C | 0% | 671.7hPa | 0V | 00:00:00 | 00:00:00 | 00:00:00 |